Time,TemperatureF,DewpointF,PressureIn,WindDirection,WindDirectionDegrees,WindSpeedMPH,WindSpeedGustMPH,Humidity,HourlyPrecipIn,Conditions,Clouds,dailyrainin,SoftwareType,DateUTC
2013-06-07 00:01:00,76.9,72.0,29.86,WSW,253,1.9,1.9,85,0.00,,,1.26,TxWx,2013-06-07 04:01:00,
2013-06-07 00:02:00,77.0,72.0,29.86,SW,231,1.2,1.9,85,0.00,,,1.26,TxWx,2013-06-07 04:02:00,
2013-06-07 00:03:00,76.9,72.0,29.86,WSW,253,1.9,1.9,85,0.00,,,0.00,TxWx,2013-06-07 04:03:00,
2013-06-07 00:06:00,76.9,72.0,29.86,SSW,208,3.1,3.7,85,0.00,,,0.00,TxWx,2013-06-07 04:06:00,
2013-06-07 00:07:00,76.9,72.0,29.86,South,186,1.2,1.9,85,0.00,,,0.00,TxWx,2013-06-07 04:07:00,
2013-06-07 00:08:00,77.0,72.0,29.86,WSW,253,2.5,3.1,85,0.00,,,0.00,TxWx,2013-06-07 04:08:00,
2013-06-07 00:09:00,76.9,72.0,29.85,SW,231,3.1,3.7,85,0.00,,,0.00,TxWx,2013-06-07 04:09:00,
2013-06-07 00:10:00,77.0,72.0,29.85,WSW,253,1.2,1.9,85,0.00,,,0.00,TxWx,2013-06-07 04:10:00,
2013-06-07 00:11:00,76.9,72.0,29.85,WSW,253,1.2,1.9,85,0.00,,,0.00,TxWx,2013-06-07 04:11:00,
2013-06-07 00:14:00,76.8,72.0,29.85,SSW,208,5.6,5.6,85,0.00,,,0.00,TxWx,2013-06-07 04:14:00,
2013-06-07 00:15:00,76.8,72.0,29.85,SSW,208,1.2,1.2,85,0.00,,,0.00,TxWx,2013-06-07 04:15:00,
2013-06-07 00:17:00,76.8,72.0,29.85,WSW,253,3.1,3.1,85,0.00,,,0.00,TxWx,2013-06-07 04:17:00,
2013-06-07 00:20:00,76.9,72.0,29.85,WSW,253,3.7,3.7,85,0.00,,,0.00,TxWx,2013-06-07 04:20:00,
2013-06-07 00:21:00,76.8,72.0,29.85,West,276,5.6,5.6,85,0.00,,,0.00,TxWx,2013-06-07 04:21:00,
2013-06-07 00:23:00,76.9,72.0,29.85,WSW,253,3.1,3.1,85,0.00,,,0.00,TxWx,2013-06-07 04:23:00,
2013-06-07 00:25:00,76.9,72.0,29.85,WSW,253,3.1,3.7,85,0.00,,,0.00,TxWx,2013-06-07 04:25:00,
2013-06-07 00:26:00,76.8,72.0,29.85,WSW,253,4.3,5.0,85,0.00,,,0.00,TxWx,2013-06-07 04:26:00,
2013-06-07 00:28:00,76.7,72.0,29.85,WSW,253,7.4,8.0,85,0.00,,,0.00,TxWx,2013-06-07 04:28:00,
2013-06-07 00:29:00,76.8,72.0,29.85,WSW,253,5.6,5.6,85,0.00,,,0.00,TxWx,2013-06-07 04:29:00,
2013-06-07 00:30:00,76.7,72.0,29.85,WSW,253,5.0,6.8,85,0.00,,,0.00,TxWx,2013-06-07 04:30:00,
2013-06-07 00:31:00,76.8,72.0,29.86,SW,231,5.6,6.2,85,0.00,,,0.00,TxWx,2013-06-07 04:31:00,
2013-06-07 00:33:00,76.7,72.0,29.85,SW,231,3.7,4.3,85,0.00,,,0.00,TxWx,2013-06-07 04:33:00,
2013-06-07 00:35:00,76.7,72.0,29.86,SW,231,4.3,5.0,85,0.00,,,0.00,TxWx,2013-06-07 04:35:00,
2013-06-07 00:36:00,76.7,72.0,29.86,WSW,253,3.1,3.7,85,0.00,,,0.00,TxWx,2013-06-07 04:36:00,
2013-06-07 00:37:00,76.8,72.0,29.86,SW,231,3.1,3.1,85,0.00,,,0.00,TxWx,2013-06-07 04:37:00,
2013-06-07 00:39:00,76.8,72.0,29.86,SW,231,3.1,3.1,85,0.00,,,0.00,TxWx,2013-06-07 04:39:00,
2013-06-07 00:40:00,76.7,72.0,29.86,SSW,208,2.5,2.5,85,0.00,,,0.00,TxWx,2013-06-07 04:40:00,
2013-06-07 00:41:00,76.7,72.0,29.86,WSW,253,2.5,2.5,85,0.00,,,0.00,TxWx,2013-06-07 04:41:00,
2013-06-07 00:42:00,76.7,72.0,29.86,WSW,253,4.3,4.3,85,0.00,,,0.00,TxWx,2013-06-07 04:42:00,
2013-06-07 00:43:00,76.8,72.0,29.86,WSW,253,3.7,4.3,85,0.00,,,0.00,TxWx,2013-06-07 04:43:00,
2013-06-07 00:44:00,76.7,72.0,29.86,SW,231,5.6,5.6,85,0.00,,,0.00,TxWx,2013-06-07 04:44:00,
2013-06-07 00:45:00,76.7,72.0,29.86,SW,231,1.2,1.9,85,0.00,,,0.00,TxWx,2013-06-07 04:45:00,
2013-06-07 00:46:00,76.8,72.0,29.86,SW,231,1.9,1.9,85,0.00,,,0.00,TxWx,2013-06-07 04:46:00,
2013-06-07 00:49:00,76.7,72.0,29.86,East,96,1.9,1.9,85,0.00,,,0.00,TxWx,2013-06-07 04:49:00,
2013-06-07 00:50:00,76.7,72.0,29.86,South,186,1.2,1.2,85,0.00,,,0.00,TxWx,2013-06-07 04:50:00,
2013-06-07 00:51:00,76.6,72.0,29.86,SSW,208,2.5,2.5,85,0.00,,,0.00,TxWx,2013-06-07 04:51:00,
2013-06-07 00:53:00,76.5,71.0,29.86,SW,231,5.0,5.0,85,0.00,,,0.00,TxWx,2013-06-07 04:53:00,
2013-06-07 00:56:00,76.4,71.0,29.86,SSW,208,5.0,5.0,85,0.00,,,0.00,TxWx,2013-06-07 04:56:00,
2013-06-07 00:58:00,76.4,71.0,29.86,ESE,118,1.9,1.9,85,0.00,,,0.00,TxWx,2013-06-07 04:58:00,
2013-06-07 01:01:00,76.4,71.0,29.87,SSW,208,3.7,3.7,85,0.00,,,0.00,TxWx,2013-06-07 05:01:00,
2013-06-07 01:02:00,76.4,71.0,29.86,SW,231,1.2,1.2,85,0.00,,,0.00,TxWx,2013-06-07 05:02:00,
2013-06-07 01:03:00,76.3,71.0,29.86,SW,231,3.7,4.3,85,0.00,,,0.00,TxWx,2013-06-07 05:03:00,
2013-06-07 01:04:00,76.4,71.0,29.87,SSW,208,1.2,1.9,85,0.00,,,0.00,TxWx,2013-06-07 05:04:00,
2013-06-07 01:05:00,76.3,71.0,29.86,WSW,253,3.1,3.1,85,0.00,,,0.00,TxWx,2013-06-07 05:05:00,
2013-06-07 01:06:00,76.3,71.0,29.86,ESE,118,2.5,3.1,85,0.00,,,0.00,TxWx,2013-06-07 05:06:00,
2013-06-07 01:07:00,76.3,71.0,29.87,South,186,3.1,3.1,85,0.00,,,0.00,TxWx,2013-06-07 05:07:00,
2013-06-07 01:10:00,76.3,71.0,29.87,SSW,208,1.2,1.2,85,0.00,,,0.00,TxWx,2013-06-07 05:10:00,
2013-06-07 01:11:00,76.3,71.0,29.86,SE,141,4.3,4.3,85,0.00,,,0.00,TxWx,2013-06-07 05:11:00,
2013-06-07 01:12:00,76.2,71.0,29.86,South,186,3.7,3.7,85,0.00,,,0.00,TxWx,2013-06-07 05:12:00,
2013-06-07 01:14:00,76.2,71.0,29.87,SE,141,1.2,1.2,85,0.00,,,0.00,TxWx,2013-06-07 05:14:00,
2013-06-07 01:17:00,76.2,71.0,29.87,SW,231,1.9,1.9,85,0.00,,,0.00,TxWx,2013-06-07 05:17:00,
2013-06-07 01:19:00,76.2,71.0,29.87,SSW,208,2.5,2.5,85,0.00,,,0.00,TxWx,2013-06-07 05:19:00,
2013-06-07 01:20:00,76.2,71.0,29.87,SE,141,3.1,3.1,85,0.00,,,0.00,TxWx,2013-06-07 05:20:00,
2013-06-07 01:22:00,76.2,71.0,29.87,SW,231,2.5,2.5,85,0.00,,,0.00,TxWx,2013-06-07 05:22:00,
2013-06-07 01:25:00,76.3,71.0,29.87,SSE,163,1.9,1.9,85,0.00,,,0.00,TxWx,2013-06-07 05:25:00,
2013-06-07 01:26:00,76.3,71.0,29.88,SSW,208,1.9,2.5,85,0.00,,,0.00,TxWx,2013-06-07 05:26:00,
2013-06-07 01:28:00,76.3,71.0,29.87,South,186,2.5,2.5,85,0.00,,,0.00,TxWx,2013-06-07 05:28:00,
2013-06-07 01:31:00,76.3,71.0,29.87,South,186,3.7,3.7,85,0.00,,,0.00,TxWx,2013-06-07 05:31:00,
2013-06-07 01:32:00,76.3,71.0,29.87,South,186,4.3,5.0,85,0.00,,,0.00,TxWx,2013-06-07 05:32:00,
2013-06-07 01:33:00,76.3,71.0,29.87,SSE,163,1.9,1.9,85,0.00,,,0.00,TxWx,2013-06-07 05:33:00,
2013-06-07 01:36:00,76.3,71.0,29.87,WSW,253,0.6,1.2,85,0.00,,,0.00,TxWx,2013-06-07 05:36:00,
2013-06-07 01:37:00,76.3,71.0,29.87,South,186,2.5,2.5,85,0.00,,,0.00,TxWx,2013-06-07 05:37:00,
2013-06-07 01:38:00,76.3,71.0,29.87,SSW,208,2.5,2.5,85,0.00,,,0.00,TxWx,2013-06-07 05:38:00,
2013-06-07 01:39:00,76.4,71.0,29.87,SSW,208,1.9,1.9,85,0.00,,,0.00,TxWx,2013-06-07 05:39:00,
2013-06-07 01:40:00,76.4,71.0,29.87,SSW,208,2.5,2.5,85,0.00,,,0.00,TxWx,2013-06-07 05:40:00,
2013-06-07 01:43:00,76.4,71.0,29.87,South,186,5.0,6.2,85,0.00,,,0.00,TxWx,2013-06-07 05:43:00,
2013-06-07 01:45:00,76.4,71.0,29.87,SSW,208,3.1,3.1,85,0.00,,,0.00,TxWx,2013-06-07 05:45:00,
2013-06-07 01:46:00,76.3,71.0,29.87,WSW,253,1.9,2.5,85,0.00,,,0.00,TxWx,2013-06-07 05:46:00,
2013-06-07 01:48:00,76.3,71.0,29.87,SSW,208,0.6,0.6,85,0.00,,,0.00,TxWx,2013-06-07 05:48:00,
2013-06-07 01:49:00,76.3,71.0,29.87,SW,231,1.2,1.9,85,0.00,,,0.00,TxWx,2013-06-07 05:49:00,
2013-06-07 01:50:00,76.3,71.0,29.87,SW,231,2.5,2.5,85,0.00,,,0.00,TxWx,2013-06-07 05:50:00,
2013-06-07 01:51:00,76.3,71.0,29.87,SSW,208,1.2,1.2,85,0.00,,,0.00,TxWx,2013-06-07 05:51:00,
2013-06-07 01:53:00,76.3,71.0,29.87,SSW,208,1.9,1.9,85,0.00,,,0.00,TxWx,2013-06-07 05:53:00,
2013-06-07 01:56:00,76.3,71.0,29.87,SE,141,2.5,3.7,86,0.00,,,0.00,TxWx,2013-06-07 05:56:00,
2013-06-07 01:57:00,76.3,71.0,29.88,WSW,253,2.5,3.1,86,0.00,,,0.00,TxWx,2013-06-07 05:57:00,
2013-06-07 01:58:00,76.2,71.0,29.88,NNW,343,2.5,3.1,86,0.00,,,0.00,TxWx,2013-06-07 05:58:00,
2013-06-07 01:59:00,76.3,71.0,29.88,SSW,208,1.9,2.5,86,0.00,,,0.00,TxWx,2013-06-07 05:59:00,
2013-06-07 02:01:00,76.3,71.0,29.88,SW,231,1.9,1.9,86,0.00,,,0.00,TxWx,2013-06-07 06:01:00,
2013-06-07 02:02:00,76.3,71.0,29.88,WSW,253,2.5,2.5,86,0.00,,,0.00,TxWx,2013-06-07 06:02:00,
2013-06-07 02:03:00,76.2,71.0,29.88,WSW,253,1.9,1.9,86,0.00,,,0.00,TxWx,2013-06-07 06:03:00,
2013-06-07 02:05:00,76.3,71.0,29.88,WSW,253,1.9,1.9,86,0.00,,,0.00,TxWx,2013-06-07 06:05:00,
2013-06-07 02:06:00,76.3,71.0,29.88,WSW,253,2.5,2.5,86,0.00,,,0.00,TxWx,2013-06-07 06:06:00,
2013-06-07 02:08:00,76.1,71.0,29.88,SW,231,1.2,2.5,86,0.00,,,0.00,TxWx,2013-06-07 06:08:00,
2013-06-07 02:09:00,76.1,71.0,29.88,WSW,253,1.2,1.2,86,0.00,,,0.00,TxWx,2013-06-07 06:09:00,
2013-06-07 02:10:00,76.0,71.0,29.88,WSW,253,1.9,1.9,86,0.00,,,0.00,TxWx,2013-06-07 06:10:00,
2013-06-07 02:13:00,75.9,71.0,29.88,SSW,208,1.9,1.9,86,0.00,,,0.00,TxWx,2013-06-07 06:13:00,
2013-06-07 02:14:00,75.9,71.0,29.88,SSW,208,1.9,1.9,86,0.00,,,0.00,TxWx,2013-06-07 06:14:00,
2013-06-07 02:15:00,75.9,71.0,29.88,WSW,253,1.9,2.5,86,0.00,,,0.00,TxWx,2013-06-07 06:15:00,
2013-06-07 02:16:00,75.9,71.0,29.88,SSW,208,3.7,4.3,86,0.00,,,0.00,TxWx,2013-06-07 06:16:00,
2013-06-07 02:19:00,75.8,71.0,29.88,South,186,2.5,2.5,86,0.00,,,0.00,TxWx,2013-06-07 06:19:00,
2013-06-07 02:20:00,75.8,71.0,29.88,SE,141,2.5,2.5,86,0.00,,,0.00,TxWx,2013-06-07 06:20:00,
2013-06-07 02:22:00,75.8,71.0,29.88,South,186,1.9,1.9,86,0.00,,,0.00,TxWx,2013-06-07 06:22:00,
2013-06-07 02:26:00,75.7,71.0,29.88,SW,231,1.9,2.5,86,0.00,,,0.00,TxWx,2013-06-07 06:26:00,
2013-06-07 02:27:00,75.7,71.0,29.88,SSE,163,5.0,6.2,86,0.00,,,0.00,TxWx,2013-06-07 06:27:00,
2013-06-07 02:28:00,75.7,71.0,29.88,SSW,208,2.5,3.1,86,0.00,,,0.00,TxWx,2013-06-07 06:28:00,
2013-06-07 02:29:00,75.7,71.0,29.88,WSW,253,1.2,1.9,86,0.00,,,0.00,TxWx,2013-06-07 06:29:00,
2013-06-07 02:32:00,75.7,71.0,29.88,WSW,253,3.1,3.1,86,0.00,,,0.00,TxWx,2013-06-07 06:32:00,
2013-06-07 02:35:00,75.6,72.0,29.88,SSE,163,1.2,1.9,87,0.00,,,0.00,TxWx,2013-06-07 06:35:00,
2013-06-07 02:36:00,75.6,72.0,29.88,South,186,3.1,3.1,87,0.00,,,0.00,TxWx,2013-06-07 06:36:00,
2013-06-07 02:38:00,75.6,72.0,29.87,SSE,163,3.7,3.7,87,0.00,,,0.00,TxWx,2013-06-07 06:38:00,
2013-06-07 02:40:00,75.6,72.0,29.87,SSW,208,2.5,2.5,87,0.00,,,0.00,TxWx,2013-06-07 06:40:00,
2013-06-07 02:41:00,75.7,72.0,29.87,West,276,0.6,0.6,87,0.00,,,0.00,TxWx,2013-06-07 06:41:00,
2013-06-07 02:42:00,75.7,72.0,29.87,SSW,208,2.5,3.1,87,0.00,,,0.00,TxWx,2013-06-07 06:42:00,
2013-06-07 02:43:00,75.7,72.0,29.87,WNW,298,1.2,1.2,87,0.00,,,0.00,TxWx,2013-06-07 06:43:00,
2013-06-07 02:44:00,75.7,72.0,29.87,WSW,253,0.6,1.2,87,0.00,,,0.00,TxWx,2013-06-07 06:44:00,
2013-06-07 02:46:00,75.7,72.0,29.87,SSW,208,3.1,3.1,87,0.00,,,0.00,TxWx,2013-06-07 06:46:00,
2013-06-07 02:47:00,75.7,72.0,29.87,SW,231,1.2,1.9,87,0.00,,,0.00,TxWx,2013-06-07 06:47:00,
2013-06-07 02:48:00,75.7,72.0,29.87,SW,231,0.0,0.0,87,0.00,,,0.00,TxWx,2013-06-07 06:48:00,
2013-06-07 02:51:00,75.7,72.0,29.87,WSW,253,1.9,3.1,87,0.00,,,0.00,TxWx,2013-06-07 06:51:00,
2013-06-07 02:53:00,75.7,72.0,29.87,SW,231,2.5,3.1,87,0.00,,,0.00,TxWx,2013-06-07 06:53:00,
2013-06-07 02:55:00,75.7,72.0,29.87,SSW,208,1.2,1.9,87,0.00,,,0.00,TxWx,2013-06-07 06:55:00,
2013-06-07 02:56:00,75.8,72.0,29.87,SSW,208,3.7,3.7,87,0.00,,,0.00,TxWx,2013-06-07 06:56:00,
2013-06-07 02:57:00,75.7,72.0,29.87,WSW,253,2.5,2.5,87,0.00,,,0.00,TxWx,2013-06-07 06:57:00,
2013-06-07 02:58:00,75.7,72.0,29.87,SSW,208,2.5,3.1,87,0.00,,,0.00,TxWx,2013-06-07 06:58:00,
2013-06-07 03:00:00,75.7,72.0,29.87,West,276,2.5,3.1,87,0.00,,,0.00,TxWx,2013-06-07 07:00:00,
2013-06-07 03:02:00,75.7,72.0,29.87,WSW,253,2.5,3.7,87,0.00,,,0.00,TxWx,2013-06-07 07:02:00,
2013-06-07 03:03:00,75.7,72.0,29.87,WNW,298,2.5,2.5,87,0.00,,,0.00,TxWx,2013-06-07 07:03:00,
2013-06-07 03:06:00,75.8,72.0,29.86,SSW,208,2.5,2.5,87,0.00,,,0.00,TxWx,2013-06-07 07:06:00,
2013-06-07 03:08:00,75.7,72.0,29.86,SW,231,0.6,1.2,87,0.00,,,0.00,TxWx,2013-06-07 07:08:00,
2013-06-07 03:09:00,75.8,72.0,29.86,SW,231,1.9,1.9,87,0.00,,,0.00,TxWx,2013-06-07 07:09:00,
2013-06-07 03:11:00,75.6,72.0,29.86,South,186,3.7,3.7,87,0.00,,,0.00,TxWx,2013-06-07 07:11:00,
2013-06-07 03:13:00,75.6,72.0,29.87,SSE,163,3.1,3.7,87,0.00,,,0.00,TxWx,2013-06-07 07:13:00,
2013-06-07 03:14:00,75.6,72.0,29.86,WSW,253,5.6,5.6,87,0.00,,,0.00,TxWx,2013-06-07 07:14:00,
2013-06-07 03:16:00,75.6,72.0,29.87,SSW,208,1.9,2.5,87,0.00,,,0.00,TxWx,2013-06-07 07:16:00,
2013-06-07 03:19:00,75.5,72.0,29.87,SSW,208,4.3,4.3,87,0.00,,,0.00,TxWx,2013-06-07 07:19:00,
2013-06-07 03:20:00,75.5,72.0,29.87,SSW,208,2.5,2.5,87,0.00,,,0.00,TxWx,2013-06-07 07:20:00,
2013-06-07 03:21:00,75.5,72.0,29.86,SW,231,1.2,1.9,87,0.00,,,0.00,TxWx,2013-06-07 07:21:00,
2013-06-07 03:23:00,75.5,72.0,29.86,SSW,208,1.2,1.9,87,0.00,,,0.00,TxWx,2013-06-07 07:23:00,
2013-06-07 03:25:00,75.5,72.0,29.86,NE,51,2.5,2.5,87,0.00,,,0.00,TxWx,2013-06-07 07:25:00,
2013-06-07 03:26:00,75.6,72.0,29.87,SSW,208,5.0,5.0,87,0.00,,,0.00,TxWx,2013-06-07 07:26:00,
2013-06-07 03:28:00,75.7,72.0,29.87,SW,231,1.9,2.5,87,0.00,,,0.00,TxWx,2013-06-07 07:28:00,
2013-06-07 03:30:00,75.7,72.0,29.87,SW,231,2.5,2.5,87,0.00,,,0.00,TxWx,2013-06-07 07:30:00,
2013-06-07 03:31:00,75.6,72.0,29.86,South,186,3.7,3.7,87,0.00,,,0.00,TxWx,2013-06-07 07:31:00,
2013-06-07 03:33:00,75.6,72.0,29.86,NW,321,3.1,3.1,87,0.00,,,0.00,TxWx,2013-06-07 07:33:00,
2013-06-07 03:36:00,75.6,72.0,29.87,SW,231,3.1,3.7,87,0.00,,,0.00,TxWx,2013-06-07 07:36:00,
2013-06-07 03:37:00,75.6,72.0,29.87,SSE,163,1.2,1.2,87,0.00,,,0.00,TxWx,2013-06-07 07:37:00,
2013-06-07 03:38:00,75.5,72.0,29.86,NE,51,2.5,2.5,87,0.00,,,0.00,TxWx,2013-06-07 07:38:00,
2013-06-07 03:41:00,75.5,72.0,29.86,SW,231,2.5,3.1,87,0.00,,,0.00,TxWx,2013-06-07 07:41:00,
2013-06-07 03:43:00,75.5,71.0,29.86,SSW,208,1.9,1.9,87,0.00,,,0.00,TxWx,2013-06-07 07:43:00,
2013-06-07 03:44:00,75.5,72.0,29.87,SW,231,1.9,1.9,87,0.00,,,0.00,TxWx,2013-06-07 07:44:00,
2013-06-07 03:45:00,75.5,72.0,29.87,SSW,208,1.9,2.5,87,0.00,,,0.00,TxWx,2013-06-07 07:45:00,
2013-06-07 03:46:00,75.5,72.0,29.87,East,96,2.5,2.5,87,0.00,,,0.00,TxWx,2013-06-07 07:46:00,
2013-06-07 03:49:00,75.6,72.0,29.86,SSW,208,5.0,5.0,87,0.00,,,0.00,TxWx,2013-06-07 07:49:00,
2013-06-07 03:51:00,75.6,72.0,29.86,SSW,208,1.2,1.2,87,0.00,,,0.00,TxWx,2013-06-07 07:51:00,
2013-06-07 03:52:00,75.6,72.0,29.86,SSW,208,3.1,3.1,87,0.00,,,0.00,TxWx,2013-06-07 07:52:00,
2013-06-07 03:54:00,75.6,72.0,29.86,SE,141,2.5,2.5,87,0.00,,,0.00,TxWx,2013-06-07 07:54:00,
2013-06-07 03:55:00,75.7,72.0,29.86,South,186,2.5,2.5,87,0.00,,,0.00,TxWx,2013-06-07 07:55:00,
2013-06-07 03:57:00,75.7,72.0,29.86,SSW,208,3.1,3.1,87,0.00,,,0.00,TxWx,2013-06-07 07:57:00,
2013-06-07 03:58:00,75.7,72.0,29.86,SSE,163,3.1,3.7,87,0.00,,,0.00,TxWx,2013-06-07 07:58:00,
2013-06-07 04:00:00,75.7,72.0,29.86,SE,141,1.9,1.9,87,0.00,,,0.00,TxWx,2013-06-07 08:00:00,
2013-06-07 04:01:00,75.7,72.0,29.86,SW,231,1.2,1.2,87,0.00,,,0.00,TxWx,2013-06-07 08:01:00,
2013-06-07 04:03:00,75.7,72.0,29.86,SW,231,1.2,1.2,87,0.00,,,0.00,TxWx,2013-06-07 08:03:00,
2013-06-07 04:04:00,75.7,72.0,29.86,South,186,1.9,1.9,87,0.00,,,0.00,TxWx,2013-06-07 08:04:00,
2013-06-07 04:07:00,75.7,72.0,29.86,WSW,253,2.5,2.5,87,0.00,,,0.00,TxWx,2013-06-07 08:07:00,
2013-06-07 04:08:00,75.7,72.0,29.86,SSW,208,1.9,1.9,87,0.00,,,0.00,TxWx,2013-06-07 08:08:00,
2013-06-07 04:09:00,75.7,72.0,29.86,SSW,208,3.1,3.1,87,0.00,,,0.00,TxWx,2013-06-07 08:09:00,
2013-06-07 04:11:00,75.7,72.0,29.86,SSW,208,1.2,1.9,87,0.00,,,0.00,TxWx,2013-06-07 08:11:00,
2013-06-07 04:13:00,75.7,72.0,29.86,WSW,253,0.6,1.2,87,0.00,,,0.00,TxWx,2013-06-07 08:13:00,
2013-06-07 04:15:00,75.7,72.0,29.86,SW,231,1.9,1.9,87,0.00,,,0.00,TxWx,2013-06-07 08:15:00,
2013-06-07 04:18:00,75.7,72.0,29.86,SSW,208,0.6,1.2,87,0.00,,,0.00,TxWx,2013-06-07 08:18:00,
2013-06-07 04:19:00,75.7,72.0,29.86,SSW,208,2.5,3.1,87,0.00,,,0.00,TxWx,2013-06-07 08:19:00,
2013-06-07 04:20:00,75.7,72.0,29.87,SW,231,3.1,3.7,87,0.00,,,0.00,TxWx,2013-06-07 08:20:00,
2013-06-07 04:21:00,75.7,72.0,29.87,SW,231,1.9,1.9,87,0.00,,,0.00,TxWx,2013-06-07 08:21:00,
2013-06-07 04:24:00,75.7,72.0,29.87,SSW,208,3.7,3.7,87,0.00,,,0.00,TxWx,2013-06-07 08:24:00,
2013-06-07 04:25:00,75.7,72.0,29.87,SW,231,1.9,1.9,87,0.00,,,0.00,TxWx,2013-06-07 08:25:00,
2013-06-07 04:26:00,75.7,72.0,29.87,SSW,208,1.2,1.2,87,0.00,,,0.00,TxWx,2013-06-07 08:26:00,
2013-06-07 04:27:00,75.8,72.0,29.87,SW,231,3.1,3.1,87,0.00,,,0.00,TxWx,2013-06-07 08:27:00,
2013-06-07 04:29:00,75.8,72.0,29.87,SSE,163,1.9,2.5,87,0.00,,,0.00,TxWx,2013-06-07 08:29:00,
2013-06-07 04:30:00,75.8,72.0,29.87,South,186,1.2,1.9,87,0.00,,,0.00,TxWx,2013-06-07 08:30:00,
2013-06-07 04:31:00,75.8,72.0,29.87,South,186,1.9,1.9,87,0.00,,,0.00,TxWx,2013-06-07 08:31:00,
2013-06-07 04:32:00,75.8,72.0,29.87,SW,231,3.1,3.1,87,0.00,,,0.00,TxWx,2013-06-07 08:32:00,
2013-06-07 04:35:00,75.8,72.0,29.87,SSW,208,1.9,1.9,87,0.00,,,0.00,TxWx,2013-06-07 08:35:00,
2013-06-07 04:36:00,75.8,72.0,29.87,SW,231,0.6,1.2,87,0.00,,,0.00,TxWx,2013-06-07 08:36:00,
2013-06-07 04:37:00,75.8,72.0,29.87,WSW,253,1.2,1.2,87,0.00,,,0.00,TxWx,2013-06-07 08:37:00,
2013-06-07 04:39:00,75.9,72.0,29.88,SSW,208,3.1,3.1,87,0.00,,,0.00,TxWx,2013-06-07 08:39:00,
2013-06-07 04:42:00,75.9,72.0,29.87,SSW,208,1.9,1.9,87,0.00,,,0.00,TxWx,2013-06-07 08:42:00,
2013-06-07 04:44:00,75.9,71.0,29.88,SSW,208,1.2,1.9,86,0.00,,,0.00,TxWx,2013-06-07 08:44:00,
2013-06-07 04:46:00,75.9,71.0,29.88,SW,231,1.9,1.9,86,0.00,,,0.00,TxWx,2013-06-07 08:46:00,
2013-06-07 04:48:00,75.9,71.0,29.88,SW,231,1.2,1.9,86,0.00,,,0.00,TxWx,2013-06-07 08:48:00,
2013-06-07 04:49:00,75.8,71.0,29.88,SSW,208,1.2,1.9,86,0.00,,,0.00,TxWx,2013-06-07 08:49:00,
2013-06-07 04:51:00,75.8,71.0,29.88,WSW,253,0.6,1.2,86,0.00,,,0.00,TxWx,2013-06-07 08:51:00,
2013-06-07 04:52:00,75.8,71.0,29.88,SSE,163,2.5,2.5,86,0.00,,,0.00,TxWx,2013-06-07 08:52:00,
2013-06-07 04:54:00,75.8,71.0,29.88,East,96,1.2,1.9,86,0.00,,,0.00,TxWx,2013-06-07 08:54:00,
2013-06-07 04:55:00,75.8,71.0,29.88,WSW,253,2.5,2.5,86,0.00,,,0.00,TxWx,2013-06-07 08:55:00,
2013-06-07 04:57:00,75.8,71.0,29.88,South,186,1.9,1.9,86,0.00,,,0.00,TxWx,2013-06-07 08:57:00,
2013-06-07 04:58:00,75.8,71.0,29.88,South,186,1.2,1.2,86,0.00,,,0.00,TxWx,2013-06-07 08:58:00,
2013-06-07 05:00:00,75.8,71.0,29.88,South,186,3.1,3.7,86,0.00,,,0.00,TxWx,2013-06-07 09:00:00,
2013-06-07 05:01:00,75.9,71.0,29.88,SSW,208,1.2,1.9,86,0.00,,,0.00,TxWx,2013-06-07 09:01:00,
2013-06-07 05:02:00,75.9,71.0,29.88,SSW,208,1.9,1.9,86,0.00,,,0.00,TxWx,2013-06-07 09:02:00,
2013-06-07 05:04:00,75.9,71.0,29.88,SSE,163,2.5,2.5,86,0.00,,,0.00,TxWx,2013-06-07 09:04:00,
2013-06-07 05:05:00,75.9,71.0,29.88,South,186,1.9,2.5,86,0.00,,,0.00,TxWx,2013-06-07 09:05:00,
2013-06-07 05:06:00,75.9,71.0,29.88,South,186,3.7,4.3,86,0.00,,,0.00,TxWx,2013-06-07 09:06:00,
2013-06-07 05:09:00,75.9,71.0,29.88,SSW,208,3.1,3.1,86,0.00,,,0.00,TxWx,2013-06-07 09:09:00,
2013-06-07 05:10:00,76.0,71.0,29.88,SSW,208,4.3,4.3,86,0.00,,,0.00,TxWx,2013-06-07 09:10:00,
2013-06-07 05:11:00,76.0,71.0,29.88,SW,231,2.5,3.7,86,0.00,,,0.00,TxWx,2013-06-07 09:11:00,
2013-06-07 05:12:00,76.0,71.0,29.88,SSW,208,1.9,2.5,86,0.00,,,0.00,TxWx,2013-06-07 09:12:00,
2013-06-07 05:13:00,76.1,71.0,29.88,SW,231,2.5,2.5,86,0.00,,,0.00,TxWx,2013-06-07 09:13:00,
2013-06-07 05:15:00,76.2,71.0,29.88,South,186,1.9,1.9,86,0.00,,,0.00,TxWx,2013-06-07 09:15:00,
2013-06-07 05:17:00,76.3,71.0,29.88,SSW,208,2.5,2.5,86,0.00,,,0.00,TxWx,2013-06-07 09:17:00,
2013-06-07 05:18:00,76.3,71.0,29.88,SW,231,3.7,3.7,86,0.00,,,0.00,TxWx,2013-06-07 09:18:00,
2013-06-07 05:19:00,76.3,71.0,29.88,SSW,208,1.9,2.5,86,0.00,,,0.00,TxWx,2013-06-07 09:19:00,
2013-06-07 05:21:00,76.3,71.0,29.88,West,276,3.1,3.7,86,0.00,,,0.00,TxWx,2013-06-07 09:21:00,
2013-06-07 05:22:00,76.2,71.0,29.88,SW,231,1.9,1.9,86,0.00,,,0.00,TxWx,2013-06-07 09:22:00,
2013-06-07 05:23:00,76.3,71.0,29.88,South,186,1.9,2.5,86,0.00,,,0.00,TxWx,2013-06-07 09:23:00,
2013-06-07 05:24:00,76.2,71.0,29.88,South,186,1.9,1.9,85,0.00,,,0.00,TxWx,2013-06-07 09:24:00,
2013-06-07 05:28:00,76.1,71.0,29.88,SSW,208,1.9,1.9,85,0.00,,,0.00,TxWx,2013-06-07 09:28:00,
2013-06-07 05:30:00,76.1,71.0,29.88,SW,231,1.2,1.9,85,0.00,,,0.00,TxWx,2013-06-07 09:30:00,
2013-06-07 05:31:00,76.0,71.0,29.88,South,186,2.5,3.1,85,0.00,,,0.00,TxWx,2013-06-07 09:31:00,
2013-06-07 05:32:00,76.1,71.0,29.88,SSE,163,0.6,1.2,85,0.00,,,0.00,TxWx,2013-06-07 09:32:00,
2013-06-07 05:35:00,76.1,71.0,29.88,SSE,163,1.9,1.9,85,0.00,,,0.00,TxWx,2013-06-07 09:35:00,
2013-06-07 05:37:00,76.1,71.0,29.88,South,186,1.9,1.9,85,0.00,,,0.00,TxWx,2013-06-07 09:37:00,
2013-06-07 05:38:00,76.1,71.0,29.88,SW,231,1.2,1.2,85,0.00,,,0.00,TxWx,2013-06-07 09:38:00,
2013-06-07 05:41:00,76.1,71.0,29.89,SSW,208,1.2,1.9,85,0.00,,,0.00,TxWx,2013-06-07 09:41:00,
2013-06-07 05:42:00,76.2,71.0,29.88,SSE,163,3.7,3.7,85,0.00,,,0.00,TxWx,2013-06-07 09:42:00,
2013-06-07 05:43:00,76.3,71.0,29.89,SSE,163,3.1,3.7,85,0.00,,,0.00,TxWx,2013-06-07 09:43:00,
2013-06-07 05:47:00,76.4,71.0,29.89,SW,231,2.5,2.5,85,0.00,,,0.00,TxWx,2013-06-07 09:47:00,
2013-06-07 05:48:00,76.5,71.0,29.89,SSE,163,1.9,1.9,85,0.00,,,0.00,TxWx,2013-06-07 09:48:00,
2013-06-07 05:49:00,76.5,72.0,29.89,WSW,253,3.7,3.7,85,0.00,,,0.00,TxWx,2013-06-07 09:49:00,
2013-06-07 05:50:00,76.6,72.0,29.89,WSW,253,1.9,1.9,85,0.00,,,0.00,TxWx,2013-06-07 09:50:00,
2013-06-07 05:53:00,76.7,72.0,29.89,South,186,3.7,3.7,85,0.00,,,0.00,TxWx,2013-06-07 09:53:00,
2013-06-07 05:54:00,76.7,72.0,29.89,SW,231,2.5,2.5,85,0.00,,,0.00,TxWx,2013-06-07 09:54:00,
2013-06-07 05:55:00,76.7,72.0,29.89,SW,231,3.1,3.1,85,0.00,,,0.00,TxWx,2013-06-07 09:55:00,
2013-06-07 05:59:00,76.7,72.0,29.89,SW,231,1.2,1.2,85,0.00,,,0.00,TxWx,2013-06-07 09:59:00,
2013-06-07 06:00:00,76.8,72.0,29.89,West,276,3.1,3.1,85,0.00,,,0.00,TxWx,2013-06-07 10:00:00,
2013-06-07 06:01:00,76.8,72.0,29.89,South,186,0.6,1.2,85,0.00,,,0.00,TxWx,2013-06-07 10:01:00,
2013-06-07 06:04:00,76.8,72.0,29.89,SW,231,4.3,5.0,85,0.00,,,0.00,TxWx,2013-06-07 10:04:00,
2013-06-07 06:06:00,76.8,72.0,29.89,South,186,1.2,1.9,84,0.00,,,0.00,TxWx,2013-06-07 10:06:00,
2013-06-07 06:07:00,76.8,72.0,29.89,SW,231,1.9,1.9,84,0.00,,,0.00,TxWx,2013-06-07 10:07:00,
2013-06-07 06:08:00,76.8,72.0,29.90,SSW,208,1.2,1.2,84,0.00,,,0.00,TxWx,2013-06-07 10:08:00,
2013-06-07 06:09:00,76.9,72.0,29.90,SSW,208,3.7,3.7,84,0.00,,,0.00,TxWx,2013-06-07 10:09:00,
2013-06-07 06:13:00,77.0,72.0,29.90,East,96,1.9,2.5,85,0.00,,,0.00,TxWx,2013-06-07 10:13:00,
2013-06-07 06:15:00,76.9,72.0,29.90,SSW,208,3.1,3.1,85,0.00,,,0.00,TxWx,2013-06-07 10:15:00,
2013-06-07 06:18:00,76.8,72.0,29.90,South,186,2.5,2.5,85,0.00,,,0.00,TxWx,2013-06-07 10:18:00,
2013-06-07 06:19:00,76.9,72.0,29.90,ENE,73,1.2,1.2,85,0.00,,,0.00,TxWx,2013-06-07 10:19:00,
2013-06-07 06:20:00,76.9,72.0,29.90,WSW,253,1.9,2.5,85,0.00,,,0.00,TxWx,2013-06-07 10:20:00,
2013-06-07 06:22:00,76.8,72.0,29.90,SE,141,2.5,3.1,85,0.00,,,0.00,TxWx,2013-06-07 10:22:00,
2013-06-07 06:23:00,76.8,72.0,29.90,SW,231,2.5,2.5,85,0.00,,,0.00,TxWx,2013-06-07 10:23:00,
2013-06-07 06:24:00,76.8,72.0,29.90,SSE,163,3.7,3.7,85,0.00,,,0.00,TxWx,2013-06-07 10:24:00,
2013-06-07 06:26:00,76.8,72.0,29.90,SSE,163,3.1,5.0,85,0.00,,,0.00,TxWx,2013-06-07 10:26:00,
2013-06-07 06:28:00,76.8,72.0,29.91,SSW,208,1.2,1.9,85,0.00,,,0.00,TxWx,2013-06-07 10:28:00,
2013-06-07 06:29:00,76.8,72.0,29.91,SSW,208,3.1,3.7,85,0.00,,,0.00,TxWx,2013-06-07 10:29:00,
2013-06-07 06:30:00,76.9,72.0,29.91,SSW,208,1.2,1.2,85,0.00,,,0.00,TxWx,2013-06-07 10:30:00,
2013-06-07 06:32:00,76.8,72.0,29.91,SW,231,1.9,1.9,85,0.00,,,0.00,TxWx,2013-06-07 10:32:00,
2013-06-07 06:34:00,76.8,72.0,29.91,WSW,253,5.6,5.6,85,0.00,,,0.00,TxWx,2013-06-07 10:34:00,
2013-06-07 06:35:00,76.8,72.0,29.91,SSW,208,2.5,2.5,85,0.00,,,0.00,TxWx,2013-06-07 10:35:00,
2013-06-07 06:36:00,76.8,72.0,29.91,WSW,253,1.9,2.5,85,0.00,,,0.00,TxWx,2013-06-07 10:36:00,
2013-06-07 06:37:00,76.8,72.0,29.91,SSW,208,4.3,4.3,85,0.00,,,0.00,TxWx,2013-06-07 10:37:00,
2013-06-07 06:38:00,76.8,72.0,29.91,SSE,163,3.1,3.1,85,0.00,,,0.00,TxWx,2013-06-07 10:38:00,
2013-06-07 06:41:00,76.8,72.0,29.91,SW,231,3.1,3.7,85,0.00,,,0.00,TxWx,2013-06-07 10:41:00,
2013-06-07 06:42:00,76.8,72.0,29.91,SW,231,2.5,2.5,85,0.00,,,0.00,TxWx,2013-06-07 10:42:00,
2013-06-07 06:43:00,76.9,72.0,29.91,West,276,1.9,1.9,85,0.00,,,0.00,TxWx,2013-06-07 10:43:00,
2013-06-07 06:45:00,76.9,72.0,29.91,SE,141,6.8,6.8,85,0.00,,,0.00,TxWx,2013-06-07 10:45:00,
2013-06-07 06:47:00,77.0,72.0,29.91,South,186,3.7,4.3,85,0.00,,,0.00,TxWx,2013-06-07 10:47:00,
2013-06-07 06:48:00,77.0,72.0,29.91,WSW,253,2.5,2.5,85,0.00,,,0.00,TxWx,2013-06-07 10:48:00,
2013-06-07 06:50:00,77.1,72.0,29.91,WSW,253,3.1,3.1,85,0.00,,,0.00,TxWx,2013-06-07 10:50:00,
2013-06-07 06:52:00,77.1,72.0,29.91,WSW,253,4.3,4.3,85,0.00,,,0.00,TxWx,2013-06-07 10:52:00,
2013-06-07 06:54:00,77.1,72.0,29.91,SSW,208,1.9,2.5,85,0.00,,,0.00,TxWx,2013-06-07 10:54:00,
2013-06-07 06:56:00,77.1,72.0,29.91,SSW,208,3.7,3.7,85,0.00,,,0.00,TxWx,2013-06-07 10:56:00,
2013-06-07 06:57:00,77.1,72.0,29.91,WSW,253,1.9,2.5,85,0.00,,,0.00,TxWx,2013-06-07 10:57:00,
2013-06-07 06:58:00,77.1,72.0,29.91,WSW,253,1.9,1.9,85,0.00,,,0.00,TxWx,2013-06-07 10:58:00,
2013-06-07 07:01:00,77.1,72.0,29.91,North,6,1.9,1.9,85,0.00,,,0.00,TxWx,2013-06-07 11:01:00,
2013-06-07 07:02:00,77.1,72.0,29.91,South,186,3.7,3.7,85,0.00,,,0.00,TxWx,2013-06-07 11:02:00,
2013-06-07 07:03:00,77.1,72.0,29.91,WSW,253,1.9,1.9,85,0.00,,,0.00,TxWx,2013-06-07 11:03:00,
2013-06-07 07:06:00,77.1,72.0,29.91,SSE,163,3.1,3.1,85,0.00,,,0.00,TxWx,2013-06-07 11:06:00,
2013-06-07 07:08:00,77.1,72.0,29.91,South,186,3.1,3.1,85,0.00,,,0.00,TxWx,2013-06-07 11:08:00,
2013-06-07 07:09:00,77.0,72.0,29.91,SW,231,3.1,3.1,85,0.00,,,0.00,TxWx,2013-06-07 11:09:00,
2013-06-07 07:10:00,77.1,72.0,29.91,WSW,253,1.9,1.9,85,0.00,,,0.00,TxWx,2013-06-07 11:10:00,
2013-06-07 07:11:00,77.1,72.0,29.91,South,186,4.3,4.3,85,0.00,,,0.00,TxWx,2013-06-07 11:11:00,
2013-06-07 07:14:00,77.1,72.0,29.91,SW,231,1.9,1.9,85,0.00,,,0.00,TxWx,2013-06-07 11:14:00,
2013-06-07 07:15:00,77.0,72.0,29.91,WSW,253,3.1,3.1,85,0.00,,,0.00,TxWx,2013-06-07 11:15:00,
2013-06-07 07:16:00,77.1,72.0,29.91,SW,231,3.1,3.1,85,0.00,,,0.00,TxWx,2013-06-07 11:16:00,
2013-06-07 07:20:00,77.3,72.0,29.91,ESE,118,1.9,2.5,85,0.00,,,0.00,TxWx,2013-06-07 11:20:00,
2013-06-07 07:21:00,77.3,72.0,29.91,SSW,208,5.0,6.2,85,0.00,,,0.00,TxWx,2013-06-07 11:21:00,
2013-06-07 07:23:00,77.4,72.0,29.91,SSE,163,5.0,5.0,85,0.00,,,0.00,TxWx,2013-06-07 11:23:00,
2013-06-07 07:24:00,77.5,72.0,29.91,SW,231,5.0,5.0,85,0.00,,,0.00,TxWx,2013-06-07 11:24:00,
2013-06-07 07:27:00,77.5,73.0,29.91,SSE,163,3.1,3.1,85,0.00,,,0.00,TxWx,2013-06-07 11:27:00,
2013-06-07 07:31:00,77.5,72.0,29.90,South,186,5.0,5.0,84,0.00,,,0.00,TxWx,2013-06-07 11:31:00,
2013-06-07 07:33:00,77.5,73.0,29.91,SW,231,3.1,3.7,84,0.00,,,0.00,TxWx,2013-06-07 11:33:00,
2013-06-07 07:34:00,77.5,73.0,29.91,WSW,253,3.1,3.1,84,0.00,,,0.00,TxWx,2013-06-07 11:34:00,
2013-06-07 07:35:00,77.5,73.0,29.91,WSW,253,7.4,7.4,84,0.00,,,0.00,TxWx,2013-06-07 11:35:00,
2013-06-07 07:36:00,77.5,73.0,29.91,SSW,208,4.3,5.0,84,0.00,,,0.00,TxWx,2013-06-07 11:36:00,
2013-06-07 07:39:00,77.6,73.0,29.91,SSW,208,4.3,5.0,84,0.00,,,0.00,TxWx,2013-06-07 11:39:00,
2013-06-07 07:40:00,77.6,73.0,29.91,SSW,208,3.1,3.7,84,0.00,,,0.00,TxWx,2013-06-07 11:40:00,
2013-06-07 07:42:00,77.7,73.0,29.91,SW,231,3.1,3.7,84,0.00,,,0.00,TxWx,2013-06-07 11:42:00,
2013-06-07 07:43:00,77.7,73.0,29.91,WSW,253,1.9,2.5,84,0.00,,,0.00,TxWx,2013-06-07 11:43:00,
2013-06-07 07:47:00,77.8,73.0,29.91,SSW,208,3.7,3.7,84,0.00,,,0.00,TxWx,2013-06-07 11:47:00,
2013-06-07 07:48:00,77.8,73.0,29.91,ENE,73,3.1,3.7,84,0.00,,,0.00,TxWx,2013-06-07 11:48:00,
2013-06-07 07:49:00,77.9,73.0,29.91,West,276,2.5,3.7,84,0.00,,,0.00,TxWx,2013-06-07 11:49:00,
2013-06-07 07:53:00,78.0,72.0,29.91,SSW,208,3.7,4.3,83,0.00,,,0.00,TxWx,2013-06-07 11:53:00,
2013-06-07 07:54:00,77.9,72.0,29.92,SW,231,8.7,10.5,83,0.00,,,0.00,TxWx,2013-06-07 11:54:00,
2013-06-07 07:55:00,78.0,72.0,29.92,WSW,253,3.7,4.3,83,0.00,,,0.00,TxWx,2013-06-07 11:55:00,
2013-06-07 07:59:00,78.5,72.0,29.92,WSW,253,3.7,3.7,83,0.00,,,0.00,TxWx,2013-06-07 11:59:00,
2013-06-07 08:00:00,78.5,72.0,29.92,South,186,3.7,5.0,83,0.00,,,0.00,TxWx,2013-06-07 12:00:00,
2013-06-07 08:01:00,78.6,73.0,29.92,SW,231,3.7,5.0,83,0.00,,,0.00,TxWx,2013-06-07 12:01:00,
2013-06-07 08:02:00,78.7,73.0,29.92,SW,231,3.7,4.3,83,0.00,,,0.00,TxWx,2013-06-07 12:02:00,
2013-06-07 08:03:00,78.8,73.0,29.92,WSW,253,3.1,3.1,83,0.00,,,0.00,TxWx,2013-06-07 12:03:00,
2013-06-07 08:06:00,79.1,73.0,29.92,South,186,5.6,5.6,83,0.00,,,0.00,TxWx,2013-06-07 12:06:00,
2013-06-07 08:08:00,79.0,73.0,29.92,SSW,208,8.0,8.0,82,0.00,,,0.00,TxWx,2013-06-07 12:08:00,
2013-06-07 08:09:00,79.0,73.0,29.92,WSW,253,2.5,3.1,82,0.00,,,0.00,TxWx,2013-06-07 12:09:00,
2013-06-07 08:10:00,79.3,73.0,29.92,South,186,3.7,3.7,82,0.00,,,0.00,TxWx,2013-06-07 12:10:00,
2013-06-07 08:12:00,79.3,73.0,29.92,WSW,253,5.6,6.2,82,0.00,,,0.00,TxWx,2013-06-07 12:12:00,
2013-06-07 08:13:00,79.3,73.0,29.92,South,186,3.1,3.7,82,0.00,,,0.00,TxWx,2013-06-07 12:13:00,
2013-06-07 08:15:00,79.3,73.0,29.92,SW,231,5.0,6.2,82,0.00,,,0.00,TxWx,2013-06-07 12:15:00,
2013-06-07 08:17:00,79.3,73.0,29.92,WSW,253,6.2,7.4,81,0.00,,,0.00,TxWx,2013-06-07 12:17:00,
2013-06-07 08:18:00,79.3,73.0,29.92,South,186,3.1,3.7,81,0.00,,,0.00,TxWx,2013-06-07 12:18:00,
2013-06-07 08:22:00,79.2,72.0,29.92,WSW,253,6.8,6.8,81,0.00,,,0.00,TxWx,2013-06-07 12:22:00,
2013-06-07 08:23:00,79.2,72.0,29.92,South,186,8.0,8.0,81,0.00,,,0.00,TxWx,2013-06-07 12:23:00,
2013-06-07 08:24:00,79.3,72.0,29.93,WSW,253,5.6,5.6,81,0.00,,,0.00,TxWx,2013-06-07 12:24:00,
2013-06-07 08:27:00,79.2,72.0,29.93,SW,231,5.0,6.2,81,0.00,,,0.00,TxWx,2013-06-07 12:27:00,
2013-06-07 08:28:00,79.3,73.0,29.93,SW,231,5.6,6.8,81,0.00,,,0.00,TxWx,2013-06-07 12:28:00,
2013-06-07 08:30:00,79.3,73.0,29.93,WSW,253,9.3,9.3,81,0.00,,,0.00,TxWx,2013-06-07 12:30:00,
2013-06-07 08:33:00,79.3,72.0,29.93,WSW,253,10.5,11.1,81,0.00,,,0.00,TxWx,2013-06-07 12:33:00,
2013-06-07 08:34:00,79.2,72.0,29.93,West,276,8.0,8.7,81,0.00,,,0.00,TxWx,2013-06-07 12:34:00,
2013-06-07 08:38:00,79.4,73.0,29.93,West,276,5.0,6.2,81,0.00,,,0.00,TxWx,2013-06-07 12:38:00,
2013-06-07 08:39:00,79.3,73.0,29.93,WSW,253,6.2,6.2,81,0.00,,,0.00,TxWx,2013-06-07 12:39:00,
2013-06-07 08:40:00,79.2,73.0,29.93,West,276,9.9,10.5,81,0.00,,,0.00,TxWx,2013-06-07 12:40:00,
2013-06-07 08:41:00,79.1,73.0,29.93,WSW,253,6.8,6.8,81,0.00,,,0.00,TxWx,2013-06-07 12:41:00,
2013-06-07 08:44:00,79.2,73.0,29.93,SSW,208,3.7,4.3,81,0.00,,,0.00,TxWx,2013-06-07 12:44:00,
2013-06-07 08:45:00,79.3,73.0,29.93,SSW,208,3.1,3.7,81,0.00,,,0.00,TxWx,2013-06-07 12:45:00,
2013-06-07 08:46:00,79.2,73.0,29.93,WSW,253,5.0,5.6,81,0.00,,,0.00,TxWx,2013-06-07 12:46:00,
2013-06-07 08:47:00,79.2,73.0,29.93,WSW,253,4.3,8.0,81,0.00,,,0.00,TxWx,2013-06-07 12:47:00,
2013-06-07 08:49:00,79.3,73.0,29.94,WSW,253,4.3,4.3,82,0.00,,,0.00,TxWx,2013-06-07 12:49:00,
2013-06-07 08:51:00,79.3,73.0,29.94,WSW,253,5.0,5.0,82,0.00,,,0.00,TxWx,2013-06-07 12:51:00,
2013-06-07 08:52:00,79.3,73.0,29.94,WSW,253,4.3,4.3,82,0.00,,,0.00,TxWx,2013-06-07 12:52:00,
2013-06-07 08:53:00,79.3,73.0,29.94,WSW,253,5.0,5.0,82,0.00,,,0.00,TxWx,2013-06-07 12:53:00,
2013-06-07 08:54:00,79.3,73.0,29.94,WSW,253,8.0,8.7,82,0.00,,,0.00,TxWx,2013-06-07 12:54:00,
2013-06-07 08:56:00,79.2,73.0,29.94,West,276,6.8,7.4,81,0.00,,,0.00,TxWx,2013-06-07 12:56:00,
2013-06-07 08:58:00,79.2,73.0,29.94,WSW,253,7.4,7.4,81,0.00,,,0.00,TxWx,2013-06-07 12:58:00,
2013-06-07 09:00:00,79.3,73.0,29.94,WSW,253,4.3,4.3,82,0.00,,,0.00,TxWx,2013-06-07 13:00:00,
2013-06-07 09:02:00,79.3,73.0,29.94,WSW,253,5.0,5.0,81,0.00,,,0.00,TxWx,2013-06-07 13:02:00,
2013-06-07 09:03:00,79.1,72.0,29.94,WSW,253,6.2,6.8,81,0.00,,,0.00,TxWx,2013-06-07 13:03:00,
2013-06-07 09:04:00,79.1,72.0,29.94,WSW,253,7.4,7.4,81,0.00,,,0.00,TxWx,2013-06-07 13:04:00,
2013-06-07 09:06:00,79.2,72.0,29.94,WSW,253,5.6,6.2,81,0.00,,,0.00,TxWx,2013-06-07 13:06:00,
2013-06-07 09:07:00,79.3,72.0,29.94,WSW,253,6.8,6.8,81,0.00,,,0.00,TxWx,2013-06-07 13:07:00,
2013-06-07 09:09:00,79.3,72.0,29.94,NW,321,5.0,5.0,81,0.00,,,0.00,TxWx,2013-06-07 13:09:00,
2013-06-07 09:10:00,79.3,72.0,29.94,WSW,253,5.0,5.0,81,0.00,,,0.00,TxWx,2013-06-07 13:10:00,
2013-06-07 09:11:00,79.3,73.0,29.94,WSW,253,9.3,9.3,81,0.00,,,0.00,TxWx,2013-06-07 13:11:00,
2013-06-07 09:12:00,79.3,73.0,29.94,WSW,253,8.7,9.9,81,0.00,,,0.00,TxWx,2013-06-07 13:12:00,
2013-06-07 09:17:00,79.4,73.0,29.94,SW,231,5.6,5.6,81,0.00,,,0.00,TxWx,2013-06-07 13:17:00,
2013-06-07 09:18:00,79.4,73.0,29.94,WSW,253,6.8,6.8,81,0.00,,,0.00,TxWx,2013-06-07 13:18:00,
2013-06-07 09:20:00,79.6,74.0,29.94,West,276,6.2,6.2,82,0.00,,,0.00,TxWx,2013-06-07 13:20:00,
2013-06-07 09:23:00,79.7,74.0,29.94,West,276,3.1,3.7,81,0.00,,,0.00,TxWx,2013-06-07 13:23:00,
2013-06-07 09:24:00,79.7,74.0,29.94,West,276,3.1,3.7,81,0.00,,,0.00,TxWx,2013-06-07 13:24:00,
2013-06-07 09:25:00,79.9,74.0,29.94,SSW,208,8.0,8.0,82,0.00,,,0.00,TxWx,2013-06-07 13:25:00,
2013-06-07 09:26:00,79.7,74.0,29.94,WSW,253,5.0,5.6,81,0.00,,,0.00,TxWx,2013-06-07 13:26:00,
2013-06-07 09:28:00,80.0,74.0,29.94,SW,231,3.7,3.7,81,0.00,,,0.00,TxWx,2013-06-07 13:28:00,
2013-06-07 09:29:00,80.1,74.0,29.94,SW,231,3.7,3.7,81,0.00,,,0.00,TxWx,2013-06-07 13:29:00,
2013-06-07 09:30:00,80.2,74.0,29.94,WSW,253,6.2,6.8,81,0.00,,,0.00,TxWx,2013-06-07 13:30:00,
2013-06-07 09:32:00,80.4,74.0,29.94,West,276,8.0,8.0,81,0.00,,,0.00,TxWx,2013-06-07 13:32:00,
2013-06-07 09:34:00,80.4,73.0,29.95,WSW,253,5.0,5.0,81,0.00,,,0.00,TxWx,2013-06-07 13:34:00,
2013-06-07 09:35:00,80.4,73.0,29.95,WSW,253,8.7,8.7,80,0.00,,,0.00,TxWx,2013-06-07 13:35:00,
2013-06-07 09:38:00,80.6,74.0,29.95,WSW,253,6.8,6.8,80,0.00,,,0.00,TxWx,2013-06-07 13:38:00,
2013-06-07 09:39:00,80.5,74.0,29.95,West,276,8.7,8.7,80,0.00,,,0.00,TxWx,2013-06-07 13:39:00,
2013-06-07 09:40:00,80.4,73.0,29.95,WSW,253,7.4,8.0,80,0.00,,,0.00,TxWx,2013-06-07 13:40:00,
2013-06-07 09:44:00,81.0,74.0,29.95,South,186,3.7,3.7,80,0.00,,,0.00,TxWx,2013-06-07 13:44:00,
2013-06-07 09:45:00,81.0,74.0,29.95,SSW,208,5.6,5.6,80,0.00,,,0.00,TxWx,2013-06-07 13:45:00,
2013-06-07 09:46:00,81.2,74.0,29.95,SW,231,3.1,3.1,80,0.00,,,0.00,TxWx,2013-06-07 13:46:00,
2013-06-07 09:47:00,81.3,74.0,29.95,WSW,253,3.1,3.1,80,0.00,,,0.00,TxWx,2013-06-07 13:47:00,
2013-06-07 09:50:00,81.4,74.0,29.96,NW,321,4.3,4.3,79,0.00,,,0.00,TxWx,2013-06-07 13:50:00,
2013-06-07 09:53:00,81.6,75.0,29.95,SW,231,6.2,6.2,79,0.00,,,0.00,TxWx,2013-06-07 13:53:00,
2013-06-07 09:56:00,82.0,74.0,29.95,SSW,208,1.9,2.5,78,0.00,,,0.00,TxWx,2013-06-07 13:56:00,
2013-06-07 09:58:00,82.0,74.0,29.96,West,276,3.7,4.3,78,0.00,,,0.00,TxWx,2013-06-07 13:58:00,
2013-06-07 10:01:00,82.0,74.0,29.96,SW,231,3.1,5.0,77,0.00,,,0.00,TxWx,2013-06-07 14:01:00,
2013-06-07 10:02:00,82.0,74.0,29.96,West,276,5.0,6.2,77,0.00,,,0.00,TxWx,2013-06-07 14:02:00,
2013-06-07 10:03:00,82.0,74.0,29.96,WSW,253,6.2,6.8,77,0.00,,,0.00,TxWx,2013-06-07 14:03:00,
2013-06-07 10:06:00,82.1,74.0,29.95,WSW,253,6.8,6.8,76,0.00,,,0.00,TxWx,2013-06-07 14:06:00,
2013-06-07 10:09:00,82.0,73.0,29.96,West,276,5.0,6.8,76,0.00,,,0.00,TxWx,2013-06-07 14:09:00,
2013-06-07 10:10:00,82.6,75.0,29.96,SSW,208,2.5,2.5,77,0.00,,,0.00,TxWx,2013-06-07 14:10:00,
2013-06-07 10:11:00,82.3,74.0,29.96,West,276,5.6,6.2,76,0.00,,,0.00,TxWx,2013-06-07 14:11:00,
2013-06-07 10:13:00,82.6,75.0,29.96,West,276,5.6,6.8,77,0.00,,,0.00,TxWx,2013-06-07 14:13:00,
2013-06-07 10:15:00,82.1,73.0,29.96,WSW,253,8.0,9.3,75,0.00,,,0.00,TxWx,2013-06-07 14:15:00,
2013-06-07 10:16:00,82.3,73.0,29.96,WSW,253,7.4,8.0,75,0.00,,,0.00,TxWx,2013-06-07 14:16:00,
2013-06-07 10:17:00,82.5,73.0,29.96,WSW,253,9.9,9.9,76,0.00,,,0.00,TxWx,2013-06-07 14:17:00,
2013-06-07 10:18:00,82.3,73.0,29.96,WSW,253,8.7,8.7,75,0.00,,,0.00,TxWx,2013-06-07 14:18:00,
2013-06-07 10:22:00,82.5,74.0,29.97,WSW,253,11.1,11.1,74,0.00,,,0.00,TxWx,2013-06-07 14:22:00,
2013-06-07 10:24:00,82.8,73.0,29.97,WSW,253,11.8,13.0,73,0.00,,,0.00,TxWx,2013-06-07 14:24:00,
2013-06-07 10:27:00,83.1,74.0,29.97,WSW,253,6.2,6.2,74,0.00,,,0.00,TxWx,2013-06-07 14:27:00,
2013-06-07 10:28:00,82.9,73.0,29.97,WSW,253,9.3,13.0,73,0.00,,,0.00,TxWx,2013-06-07 14:28:00,
2013-06-07 10:29:00,83.0,74.0,29.96,WSW,253,5.6,6.8,74,0.00,,,0.00,TxWx,2013-06-07 14:29:00,
2013-06-07 10:31:00,82.9,73.0,29.97,West,276,11.1,12.4,73,0.00,,,0.00,TxWx,2013-06-07 14:31:00,
2013-06-07 10:33:00,83.0,73.0,29.96,West,276,9.9,10.5,73,0.00,,,0.00,TxWx,2013-06-07 14:33:00,
2013-06-07 10:35:00,82.9,73.0,29.96,WSW,253,9.9,9.9,73,0.00,,,0.00,TxWx,2013-06-07 14:35:00,
2013-06-07 10:36:00,82.9,73.0,29.96,WSW,253,10.5,11.1,72,0.00,,,0.00,TxWx,2013-06-07 14:36:00,
2013-06-07 10:37:00,83.1,73.0,29.96,WSW,253,10.5,11.1,73,0.00,,,0.00,TxWx,2013-06-07 14:37:00,
2013-06-07 10:39:00,83.1,73.0,29.96,WSW,253,7.4,7.4,73,0.00,,,0.00,TxWx,2013-06-07 14:39:00,
2013-06-07 10:40:00,83.3,73.0,29.96,West,276,8.7,8.7,72,0.00,,,0.00,TxWx,2013-06-07 14:40:00,
2013-06-07 10:42:00,83.3,73.0,29.96,WNW,298,8.0,8.7,72,0.00,,,0.00,TxWx,2013-06-07 14:42:00,
2013-06-07 10:46:00,83.8,74.0,29.96,WSW,253,8.0,8.0,72,0.00,,,0.00,TxWx,2013-06-07 14:46:00,
2013-06-07 10:47:00,83.6,73.0,29.96,WSW,253,8.0,9.3,71,0.00,,,0.00,TxWx,2013-06-07 14:47:00,
2013-06-07 10:48:00,83.7,73.0,29.96,SW,231,5.6,6.8,71,0.00,,,0.00,TxWx,2013-06-07 14:48:00,
2013-06-07 10:49:00,83.8,74.0,29.96,WSW,253,5.6,6.2,71,0.00,,,0.00,TxWx,2013-06-07 14:49:00,
2013-06-07 10:52:00,83.7,73.0,29.96,WSW,253,9.9,11.1,70,0.00,,,0.00,TxWx,2013-06-07 14:52:00,
2013-06-07 10:53:00,84.0,73.0,29.95,WSW,253,11.8,12.4,71,0.00,,,0.00,TxWx,2013-06-07 14:53:00,
2013-06-07 10:54:00,83.7,73.0,29.96,WSW,253,9.9,9.9,70,0.00,,,0.00,TxWx,2013-06-07 14:54:00,
2013-06-07 10:56:00,83.7,72.0,29.96,WSW,253,13.0,13.0,68,0.00,,,0.00,TxWx,2013-06-07 14:56:00,
2013-06-07 10:58:00,84.3,73.0,29.96,West,276,5.6,6.2,69,0.00,,,0.00,TxWx,2013-06-07 14:58:00,
2013-06-07 10:59:00,84.2,72.0,29.96,WSW,253,9.9,10.5,69,0.00,,,0.00,TxWx,2013-06-07 14:59:00,
2013-06-07 11:01:00,84.3,73.0,29.96,WNW,298,11.8,11.8,70,0.00,,,0.00,TxWx,2013-06-07 15:01:00,
2013-06-07 11:02:00,84.3,73.0,29.96,WSW,253,11.8,11.8,69,0.00,,,0.00,TxWx,2013-06-07 15:02:00,
2013-06-07 11:03:00,84.0,72.0,29.96,West,276,10.5,11.1,69,0.00,,,0.00,TxWx,2013-06-07 15:03:00,
2013-06-07 11:04:00,84.0,72.0,29.96,West,276,9.9,11.8,68,0.00,,,0.00,TxWx,2013-06-07 15:04:00,
2013-06-07 11:06:00,84.2,72.0,29.96,West,276,8.7,8.7,69,0.00,,,0.00,TxWx,2013-06-07 15:06:00,
2013-06-07 11:07:00,84.1,72.0,29.96,WSW,253,9.3,9.9,69,0.00,,,0.00,TxWx,2013-06-07 15:07:00,
2013-06-07 11:09:00,84.2,73.0,29.96,WSW,253,7.4,8.0,69,0.00,,,0.00,TxWx,2013-06-07 15:09:00,
2013-06-07 11:12:00,84.0,73.0,29.96,WNW,298,11.8,12.4,70,0.00,,,0.00,TxWx,2013-06-07 15:12:00,
2013-06-07 11:13:00,83.9,73.0,29.96,WNW,298,8.7,9.9,70,0.00,,,0.00,TxWx,2013-06-07 15:13:00,
2013-06-07 11:14:00,83.9,73.0,29.96,West,276,9.3,9.9,70,0.00,,,0.00,TxWx,2013-06-07 15:14:00,
2013-06-07 11:16:00,84.1,73.0,29.96,WSW,253,8.7,8.7,70,0.00,,,0.00,TxWx,2013-06-07 15:16:00,
2013-06-07 11:17:00,84.3,73.0,29.96,West,276,7.4,8.7,70,0.00,,,0.00,TxWx,2013-06-07 15:17:00,
2013-06-07 11:18:00,84.3,73.0,29.96,West,276,6.2,6.2,70,0.00,,,0.00,TxWx,2013-06-07 15:18:00,
2013-06-07 11:19:00,84.4,73.0,29.96,West,276,7.4,7.4,71,0.00,,,0.00,TxWx,2013-06-07 15:19:00,
2013-06-07 11:20:00,84.7,74.0,29.96,WSW,253,3.7,3.7,71,0.00,,,0.00,TxWx,2013-06-07 15:20:00,
2013-06-07 11:23:00,84.6,73.0,29.96,WSW,253,5.6,5.6,69,0.00,,,0.00,TxWx,2013-06-07 15:23:00,
2013-06-07 11:24:00,84.8,73.0,29.96,WSW,253,9.3,9.3,69,0.00,,,0.00,TxWx,2013-06-07 15:24:00,
2013-06-07 11:25:00,84.9,74.0,29.96,WNW,298,6.8,7.4,69,0.00,,,0.00,TxWx,2013-06-07 15:25:00,
2013-06-07 11:27:00,84.9,74.0,29.96,WSW,253,7.4,7.4,70,0.00,,,0.00,TxWx,2013-06-07 15:27:00,
2013-06-07 11:30:00,84.8,74.0,29.96,West,276,10.5,10.5,70,0.00,,,0.00,TxWx,2013-06-07 15:30:00,
2013-06-07 11:31:00,85.0,74.0,29.96,West,276,8.0,8.7,71,0.00,,,0.00,TxWx,2013-06-07 15:31:00,
2013-06-07 11:32:00,84.9,74.0,29.96,WSW,253,11.1,11.1,70,0.00,,,0.00,TxWx,2013-06-07 15:32:00,
2013-06-07 11:33:00,84.9,74.0,29.96,West,276,5.0,6.8,70,0.00,,,0.00,TxWx,2013-06-07 15:33:00,
2013-06-07 11:36:00,84.7,74.0,29.96,West,276,10.5,10.5,69,0.00,,,0.00,TxWx,2013-06-07 15:36:00,
2013-06-07 11:39:00,84.8,73.0,29.96,West,276,9.9,9.9,68,0.00,,,0.00,TxWx,2013-06-07 15:39:00,
2013-06-07 11:40:00,85.2,74.0,29.95,WSW,253,7.4,7.4,69,0.00,,,0.00,TxWx,2013-06-07 15:40:00,
2013-06-07 11:41:00,85.3,73.0,29.96,West,276,5.0,5.6,69,0.00,,,0.00,TxWx,2013-06-07 15:41:00,
2013-06-07 11:42:00,85.1,73.0,29.96,WSW,253,6.2,7.4,69,0.00,,,0.00,TxWx,2013-06-07 15:42:00,
2013-06-07 11:44:00,85.3,73.0,29.96,WSW,253,8.7,8.7,68,0.00,,,0.00,TxWx,2013-06-07 15:44:00,
2013-06-07 11:45:00,85.4,73.0,29.96,West,276,11.1,11.1,68,0.00,,,0.00,TxWx,2013-06-07 15:45:00,
2013-06-07 11:49:00,85.5,73.0,29.95,West,276,8.7,9.3,67,0.00,,,0.00,TxWx,2013-06-07 15:49:00,
2013-06-07 11:51:00,85.7,73.0,29.96,WSW,253,6.2,6.8,67,0.00,,,0.00,TxWx,2013-06-07 15:51:00,
2013-06-07 11:53:00,86.1,74.0,29.96,WSW,253,10.5,10.5,69,0.00,,,0.00,TxWx,2013-06-07 15:53:00,
2013-06-07 11:54:00,85.6,74.0,29.96,WNW,298,11.8,11.8,67,0.00,,,0.00,TxWx,2013-06-07 15:54:00,
2013-06-07 11:55:00,85.7,73.0,29.96,West,276,9.9,9.9,67,0.00,,,0.00,TxWx,2013-06-07 15:55:00,
2013-06-07 11:56:00,86.2,74.0,29.96,West,276,5.6,5.6,68,0.00,,,0.00,TxWx,2013-06-07 15:56:00,
2013-06-07 11:57:00,86.0,74.0,29.96,WNW,298,10.5,10.5,68,0.00,,,0.00,TxWx,2013-06-07 15:57:00,
2013-06-07 11:59:00,85.7,73.0,29.96,West,276,9.9,9.9,67,0.00,,,0.00,TxWx,2013-06-07 15:59:00,
2013-06-07 12:01:00,85.5,72.0,29.96,West,276,9.3,9.9,66,0.00,,,0.00,TxWx,2013-06-07 16:01:00,
2013-06-07 12:02:00,85.5,73.0,29.96,West,276,13.6,13.6,67,0.00,,,0.00,TxWx,2013-06-07 16:02:00,
2013-06-07 12:03:00,85.6,73.0,29.96,West,276,13.6,13.6,67,0.00,,,0.00,TxWx,2013-06-07 16:03:00,
2013-06-07 12:05:00,85.7,73.0,29.96,West,276,13.6,16.1,67,0.00,,,0.00,TxWx,2013-06-07 16:05:00,
2013-06-07 12:06:00,85.7,73.0,29.96,WSW,253,13.0,13.0,67,0.00,,,0.00,TxWx,2013-06-07 16:06:00,
2013-06-07 12:08:00,85.7,73.0,29.96,WSW,253,9.9,14.2,66,0.00,,,0.00,TxWx,2013-06-07 16:08:00,
2013-06-07 12:09:00,85.9,73.0,29.96,WSW,253,13.0,16.1,66,0.00,,,0.00,TxWx,2013-06-07 16:09:00,
2013-06-07 12:13:00,86.2,73.0,29.95,WSW,253,11.8,12.4,65,0.00,,,0.00,TxWx,2013-06-07 16:13:00,
2013-06-07 12:14:00,86.1,73.0,29.95,WNW,298,13.6,13.6,65,0.00,,,0.00,TxWx,2013-06-07 16:14:00,
2013-06-07 12:16:00,86.2,73.0,29.96,SSW,208,7.4,8.7,66,0.00,,,0.00,TxWx,2013-06-07 16:16:00,
2013-06-07 12:17:00,86.4,73.0,29.96,SW,231,3.1,3.7,66,0.00,,,0.00,TxWx,2013-06-07 16:17:00,
2013-06-07 12:18:00,86.2,73.0,29.96,WSW,253,5.6,5.6,66,0.00,,,0.00,TxWx,2013-06-07 16:18:00,
2013-06-07 12:20:00,86.2,73.0,29.96,WSW,253,9.3,11.1,67,0.00,,,0.00,TxWx,2013-06-07 16:20:00,
2013-06-07 12:22:00,85.9,73.0,29.96,WSW,253,9.3,9.3,66,0.00,,,0.00,TxWx,2013-06-07 16:22:00,
2013-06-07 12:24:00,86.2,73.0,29.96,WSW,253,13.0,13.0,66,0.00,,,0.00,TxWx,2013-06-07 16:24:00,
2013-06-07 12:27:00,86.5,74.0,29.96,SW,231,4.3,4.3,66,0.00,,,0.00,TxWx,2013-06-07 16:27:00,
2013-06-07 12:29:00,86.5,73.0,29.96,West,276,7.4,8.0,65,0.00,,,0.00,TxWx,2013-06-07 16:29:00,
2013-06-07 12:33:00,87.4,74.0,29.96,SSW,208,7.4,7.4,67,0.00,,,0.00,TxWx,2013-06-07 16:33:00,
2013-06-07 12:34:00,87.4,74.0,29.96,West,276,2.5,3.7,67,0.00,,,0.00,TxWx,2013-06-07 16:34:00,
2013-06-07 12:36:00,87.3,73.0,29.95,West,276,1.9,2.5,64,0.00,,,0.00,TxWx,2013-06-07 16:36:00,
2013-06-07 12:37:00,87.3,73.0,29.95,SW,231,1.2,2.5,64,0.00,,,0.00,TxWx,2013-06-07 16:37:00,
2013-06-07 12:39:00,87.1,73.0,29.95,SW,231,3.7,5.0,64,0.00,,,0.00,TxWx,2013-06-07 16:39:00,
2013-06-07 12:40:00,87.0,74.0,29.95,WSW,253,5.0,5.0,65,0.00,,,0.00,TxWx,2013-06-07 16:40:00,
2013-06-07 12:41:00,86.7,73.0,29.95,West,276,9.9,9.9,64,0.00,,,0.00,TxWx,2013-06-07 16:41:00,
2013-06-07 12:42:00,86.6,73.0,29.95,West,276,9.3,9.3,64,0.00,,,0.00,TxWx,2013-06-07 16:42:00,
2013-06-07 12:45:00,86.2,73.0,29.95,WSW,253,9.9,9.9,66,0.00,,,0.00,TxWx,2013-06-07 16:45:00,
2013-06-07 12:48:00,85.7,74.0,29.95,West,276,10.5,10.5,68,0.00,,,0.00,TxWx,2013-06-07 16:48:00,
2013-06-07 12:49:00,85.4,73.0,29.95,West,276,9.3,9.3,68,0.00,,,0.00,TxWx,2013-06-07 16:49:00,
2013-06-07 12:50:00,85.3,73.0,29.95,WSW,253,9.9,9.9,68,0.00,,,0.00,TxWx,2013-06-07 16:50:00,
2013-06-07 12:53:00,85.5,74.0,29.95,WSW,253,11.1,12.4,68,0.00,,,0.00,TxWx,2013-06-07 16:53:00,
2013-06-07 12:54:00,86.1,74.0,29.95,West,276,9.9,9.9,69,0.00,,,0.00,TxWx,2013-06-07 16:54:00,
2013-06-07 12:55:00,85.9,74.0,29.95,West,276,11.1,11.8,67,0.00,,,0.00,TxWx,2013-06-07 16:55:00,
2013-06-07 12:58:00,86.2,73.0,29.95,WSW,253,8.7,9.3,67,0.00,,,0.00,TxWx,2013-06-07 16:58:00,
2013-06-07 13:00:00,86.6,74.0,29.95,WSW,253,8.0,8.0,66,0.00,,,0.00,TxWx,2013-06-07 17:00:00,
2013-06-07 13:01:00,86.7,74.0,29.95,WSW,253,8.7,9.3,66,0.00,,,0.00,TxWx,2013-06-07 17:01:00,
2013-06-07 13:02:00,86.7,74.0,29.95,SW,231,3.7,5.6,65,0.00,,,0.00,TxWx,2013-06-07 17:02:00,
2013-06-07 13:04:00,86.5,74.0,29.95,West,276,3.1,3.7,67,0.00,,,0.00,TxWx,2013-06-07 17:04:00,
2013-06-07 13:05:00,85.2,73.0,29.95,SE,141,5.0,5.6,68,0.00,,,0.00,TxWx,2013-06-07 17:05:00,
2013-06-07 13:07:00,85.3,74.0,29.95,South,186,3.7,4.3,70,0.00,,,0.00,TxWx,2013-06-07 17:07:00,
2013-06-07 13:10:00,84.9,75.0,29.95,ESE,118,2.5,3.1,72,0.00,,,0.00,TxWx,2013-06-07 17:10:00,
2013-06-07 13:11:00,85.0,75.0,29.95,SSE,163,3.7,3.7,72,0.00,,,0.00,TxWx,2013-06-07 17:11:00,
2013-06-07 13:12:00,84.8,75.0,29.95,South,186,4.3,5.0,73,0.00,,,0.00,TxWx,2013-06-07 17:12:00,
2013-06-07 13:13:00,84.9,76.0,29.95,South,186,3.7,3.7,74,0.00,,,0.00,TxWx,2013-06-07 17:13:00,
2013-06-07 13:15:00,84.9,76.0,29.95,SE,141,3.1,3.1,74,0.00,,,0.00,TxWx,2013-06-07 17:15:00,
2013-06-07 13:17:00,84.9,76.0,29.95,SW,231,3.1,3.7,75,0.00,,,0.00,TxWx,2013-06-07 17:17:00,
2013-06-07 13:18:00,84.0,74.0,29.95,West,276,7.4,8.0,72,0.00,,,0.00,TxWx,2013-06-07 17:18:00,
2013-06-07 13:19:00,84.2,74.0,29.95,WNW,298,6.2,6.2,72,0.00,,,0.00,TxWx,2013-06-07 17:19:00,
2013-06-07 13:20:00,83.8,74.0,29.95,WSW,253,6.8,8.0,72,0.00,,,0.01,TxWx,2013-06-07 17:20:00,
2013-06-07 13:22:00,84.1,74.0,29.95,South,186,1.2,1.9,72,0.00,,,0.01,TxWx,2013-06-07 17:22:00,
2013-06-07 13:23:00,83.6,74.0,29.95,SE,141,8.7,8.7,73,0.00,,,0.02,TxWx,2013-06-07 17:23:00,
2013-06-07 13:24:00,83.2,74.0,29.95,SSE,163,6.8,7.4,74,0.12,,,0.02,TxWx,2013-06-07 17:24:00,
2013-06-07 13:27:00,82.6,75.0,29.95,SSE,163,6.8,8.0,77,0.12,,,0.02,TxWx,2013-06-07 17:27:00,
2013-06-07 13:28:00,82.5,74.0,29.96,SSE,163,11.1,11.1,78,0.12,,,0.02,TxWx,2013-06-07 17:28:00,
2013-06-07 13:29:00,81.4,73.0,29.96,ESE,118,4.3,5.6,77,0.12,,,0.02,TxWx,2013-06-07 17:29:00,
2013-06-07 13:30:00,81.6,74.0,29.96,SE,141,3.1,3.1,78,0.12,,,0.02,TxWx,2013-06-07 17:30:00,
2013-06-07 13:34:00,80.6,74.0,29.96,SE,141,9.3,10.5,80,0.00,,,0.02,TxWx,2013-06-07 17:34:00,
2013-06-07 13:35:00,80.6,74.0,29.96,SSW,208,2.5,3.7,81,0.00,,,0.02,TxWx,2013-06-07 17:35:00,
2013-06-07 13:37:00,80.9,75.0,29.97,South,186,3.1,3.7,82,0.00,,,0.02,TxWx,2013-06-07 17:37:00,
2013-06-07 13:39:00,81.0,75.0,29.96,South,186,8.0,9.9,82,0.00,,,0.02,TxWx,2013-06-07 17:39:00,
2013-06-07 13:42:00,80.3,74.0,29.96,SSE,163,6.2,8.0,82,0.00,,,0.02,TxWx,2013-06-07 17:42:00,
2013-06-07 13:43:00,80.4,74.0,29.96,SSW,208,5.0,5.6,83,0.00,,,0.02,TxWx,2013-06-07 17:43:00,
2013-06-07 13:44:00,80.4,74.0,29.96,South,186,8.7,8.7,83,0.00,,,0.02,TxWx,2013-06-07 17:44:00,
2013-06-07 13:46:00,79.8,74.0,29.96,East,96,7.4,10.5,83,0.00,,,0.02,TxWx,2013-06-07 17:46:00,
2013-06-07 13:47:00,79.8,74.0,29.96,SE,141,6.8,9.9,83,0.00,,,0.02,TxWx,2013-06-07 17:47:00,
2013-06-07 13:49:00,79.6,74.0,29.96,SSW,208,14.2,14.2,83,0.00,,,0.02,TxWx,2013-06-07 17:49:00,
2013-06-07 13:50:00,79.5,74.0,29.96,ESE,118,14.9,15.5,83,0.00,,,0.02,TxWx,2013-06-07 17:50:00,
2013-06-07 13:52:00,79.4,74.0,29.96,SE,141,14.9,14.9,84,0.00,,,0.02,TxWx,2013-06-07 17:52:00,
2013-06-07 13:53:00,79.4,74.0,29.95,SE,141,11.1,11.1,84,0.00,,,0.02,TxWx,2013-06-07 17:53:00,
2013-06-07 13:56:00,79.0,73.0,29.95,ESE,118,13.6,13.6,83,0.00,,,0.02,TxWx,2013-06-07 17:56:00,
2013-06-07 13:57:00,79.0,73.0,29.95,SE,141,11.8,12.4,83,0.00,,,0.02,TxWx,2013-06-07 17:57:00,
2013-06-07 14:00:00,79.0,74.0,29.95,SE,141,9.3,10.5,84,0.00,,,0.02,TxWx,2013-06-07 18:00:00,
2013-06-07 14:03:00,79.4,74.0,29.95,South,186,2.5,3.1,84,0.00,,,0.02,TxWx,2013-06-07 18:03:00,
2013-06-07 14:06:00,79.5,74.0,29.95,SW,231,2.5,3.1,84,0.00,,,0.02,TxWx,2013-06-07 18:06:00,
2013-06-07 14:07:00,79.5,74.0,29.95,WNW,298,2.5,2.5,84,0.00,,,0.02,TxWx,2013-06-07 18:07:00,
2013-06-07 14:09:00,79.4,73.0,29.94,SSW,208,3.7,3.7,83,0.00,,,0.02,TxWx,2013-06-07 18:09:00,
2013-06-07 14:10:00,79.6,74.0,29.94,WSW,253,1.2,1.2,83,0.00,,,0.02,TxWx,2013-06-07 18:10:00,
2013-06-07 14:11:00,79.5,73.0,29.94,SSW,208,2.5,3.7,83,0.00,,,0.02,TxWx,2013-06-07 18:11:00,
2013-06-07 14:13:00,79.5,74.0,29.95,South,186,3.1,3.1,83,0.00,,,0.02,TxWx,2013-06-07 18:13:00,
2013-06-07 14:15:00,79.2,73.0,29.95,SSE,163,5.6,7.4,82,0.00,,,0.02,TxWx,2013-06-07 18:15:00,
2013-06-07 14:16:00,79.3,73.0,29.95,ESE,118,8.7,8.7,82,0.00,,,0.02,TxWx,2013-06-07 18:16:00,
2013-06-07 14:17:00,79.0,73.0,29.95,SE,141,8.7,11.1,81,0.00,,,0.02,TxWx,2013-06-07 18:17:00,
2013-06-07 14:20:00,78.6,73.0,29.96,SE,141,6.8,6.8,81,0.00,,,0.02,TxWx,2013-06-07 18:20:00,
2013-06-07 14:22:00,78.5,73.0,29.96,South,186,6.2,6.8,81,0.00,,,0.02,TxWx,2013-06-07 18:22:00,
2013-06-07 14:24:00,78.5,72.0,29.96,SSE,163,9.3,9.3,82,0.00,,,0.02,TxWx,2013-06-07 18:24:00,
2013-06-07 14:25:00,78.3,72.0,29.97,SSW,208,8.0,10.5,82,0.00,,,0.02,TxWx,2013-06-07 18:25:00,
2013-06-07 14:27:00,78.2,72.0,29.97,SE,141,5.6,7.4,82,0.00,,,0.02,TxWx,2013-06-07 18:27:00,
2013-06-07 14:30:00,78.1,72.0,29.97,SSW,208,3.7,5.0,82,0.00,,,0.02,TxWx,2013-06-07 18:30:00,
2013-06-07 14:32:00,78.1,72.0,29.97,SSE,163,7.4,8.7,82,0.00,,,0.02,TxWx,2013-06-07 18:32:00,
2013-06-07 14:33:00,77.8,72.0,29.97,SSE,163,17.3,17.3,82,0.00,,,0.02,TxWx,2013-06-07 18:33:00,
2013-06-07 14:36:00,77.6,72.0,29.97,SE,141,8.7,10.5,83,0.00,,,0.02,TxWx,2013-06-07 18:36:00,
2013-06-07 14:38:00,77.6,72.0,29.97,SSE,163,10.5,10.5,83,0.00,,,0.02,TxWx,2013-06-07 18:38:00,
2013-06-07 14:40:00,77.5,73.0,29.97,SSE,163,8.7,8.7,84,0.00,,,0.02,TxWx,2013-06-07 18:40:00,
2013-06-07 14:42:00,77.2,71.0,29.97,SSW,208,4.3,6.2,83,0.00,,,0.02,TxWx,2013-06-07 18:42:00,
2013-06-07 14:45:00,77.2,72.0,29.97,SE,141,6.8,8.0,84,0.00,,,0.02,TxWx,2013-06-07 18:45:00,
2013-06-07 14:46:00,77.4,72.0,29.97,SSE,163,6.2,6.2,84,0.00,,,0.02,TxWx,2013-06-07 18:46:00,
2013-06-07 14:47:00,77.5,73.0,29.97,SSE,163,6.2,6.8,84,0.00,,,0.02,TxWx,2013-06-07 18:47:00,
2013-06-07 14:49:00,77.7,73.0,29.97,South,186,6.2,6.2,84,0.00,,,0.02,TxWx,2013-06-07 18:49:00,
2013-06-07 14:52:00,77.5,73.0,29.97,SSW,208,5.0,5.6,84,0.00,,,0.02,TxWx,2013-06-07 18:52:00,
2013-06-07 14:54:00,77.4,72.0,29.97,SSW,208,9.3,9.9,84,0.00,,,0.02,TxWx,2013-06-07 18:54:00,
2013-06-07 14:56:00,77.2,72.0,29.97,South,186,7.4,7.4,84,0.00,,,0.02,TxWx,2013-06-07 18:56:00,
2013-06-07 14:57:00,77.3,72.0,29.97,South,186,3.1,4.3,84,0.00,,,0.02,TxWx,2013-06-07 18:57:00,
2013-06-07 14:59:00,77.3,72.0,29.96,NNE,28,1.9,2.5,84,0.00,,,0.02,TxWx,2013-06-07 18:59:00,
2013-06-07 15:00:00,77.4,72.0,29.96,East,96,1.9,1.9,84,0.00,,,0.02,TxWx,2013-06-07 19:00:00,
2013-06-07 15:02:00,77.5,72.0,29.96,East,96,5.6,8.0,84,0.00,,,0.02,TxWx,2013-06-07 19:02:00,
2013-06-07 15:03:00,77.4,71.0,29.96,SSE,163,6.2,6.8,83,0.00,,,0.02,TxWx,2013-06-07 19:03:00,
2013-06-07 15:04:00,77.5,72.0,29.96,SSE,163,3.7,3.7,83,0.00,,,0.02,TxWx,2013-06-07 19:04:00,
2013-06-07 15:05:00,77.5,71.0,29.96,South,186,6.2,6.2,83,0.00,,,0.02,TxWx,2013-06-07 19:05:00,
2013-06-07 15:10:00,77.6,72.0,29.95,SE,141,6.2,6.2,82,0.00,,,0.02,TxWx,2013-06-07 19:10:00,
2013-06-07 15:11:00,77.7,72.0,29.95,WSW,253,4.3,5.0,82,0.00,,,0.02,TxWx,2013-06-07 19:11:00,
2013-06-07 15:12:00,77.7,72.0,29.95,SE,141,7.4,9.9,82,0.00,,,0.02,TxWx,2013-06-07 19:12:00,
2013-06-07 15:13:00,77.9,72.0,29.96,ESE,118,12.4,12.4,82,0.00,,,0.02,TxWx,2013-06-07 19:13:00,
2013-06-07 15:15:00,78.0,72.0,29.96,SSE,163,13.6,15.5,82,0.00,,,0.02,TxWx,2013-06-07 19:15:00,
2013-06-07 15:16:00,78.1,72.0,29.96,ESE,118,8.0,11.1,82,0.00,,,0.02,TxWx,2013-06-07 19:16:00,
2013-06-07 15:19:00,78.0,72.0,29.96,South,186,7.4,7.4,82,0.00,,,0.02,TxWx,2013-06-07 19:19:00,
2013-06-07 15:22:00,77.6,72.0,29.96,SE,141,8.0,11.1,82,0.00,,,0.02,TxWx,2013-06-07 19:22:00,
2013-06-07 15:23:00,77.6,72.0,29.96,WSW,253,4.3,5.0,82,0.00,,,0.02,TxWx,2013-06-07 19:23:00,
2013-06-07 15:24:00,77.7,72.0,29.96,SSW,208,3.1,3.7,83,0.00,,,0.02,TxWx,2013-06-07 19:24:00,
2013-06-07 15:25:00,77.6,72.0,29.96,South,186,3.7,3.7,83,0.00,,,0.02,TxWx,2013-06-07 19:25:00,
2013-06-07 15:28:00,77.7,72.0,29.96,West,276,3.7,3.7,83,0.00,,,0.02,TxWx,2013-06-07 19:28:00,
2013-06-07 15:29:00,77.6,72.0,29.96,South,186,3.7,4.3,83,0.00,,,0.02,TxWx,2013-06-07 19:29:00,
2013-06-07 15:32:00,77.7,73.0,29.95,South,186,4.3,4.3,84,0.00,,,0.02,TxWx,2013-06-07 19:32:00,
2013-06-07 15:34:00,77.6,73.0,29.95,South,186,9.3,9.3,84,0.00,,,0.02,TxWx,2013-06-07 19:34:00,
2013-06-07 15:38:00,77.9,73.0,29.95,South,186,3.7,4.3,84,0.00,,,0.02,TxWx,2013-06-07 19:38:00,
2013-06-07 15:39:00,77.8,73.0,29.96,South,186,4.3,4.3,84,0.00,,,0.02,TxWx,2013-06-07 19:39:00,
2013-06-07 15:40:00,77.8,73.0,29.96,WSW,253,7.4,7.4,84,0.00,,,0.02,TxWx,2013-06-07 19:40:00,
2013-06-07 15:41:00,77.5,73.0,29.96,SSW,208,8.0,8.0,84,0.00,,,0.02,TxWx,2013-06-07 19:41:00,
2013-06-07 15:43:00,77.2,72.0,29.95,South,186,6.2,6.2,84,0.00,,,0.02,TxWx,2013-06-07 19:43:00,
2013-06-07 15:45:00,77.1,72.0,29.95,SSE,163,3.7,5.0,84,0.00,,,0.02,TxWx,2013-06-07 19:45:00,
2013-06-07 15:46:00,77.1,72.0,29.95,SSW,208,3.1,3.1,84,0.00,,,0.02,TxWx,2013-06-07 19:46:00,
2013-06-07 15:47:00,77.0,72.0,29.95,SW,231,7.4,7.4,84,0.00,,,0.02,TxWx,2013-06-07 19:47:00,
2013-06-07 15:48:00,77.0,72.0,29.95,SW,231,2.5,2.5,84,0.00,,,0.02,TxWx,2013-06-07 19:48:00,
2013-06-07 15:51:00,77.1,72.0,29.94,WNW,298,1.2,1.2,84,0.00,,,0.02,TxWx,2013-06-07 19:51:00,
2013-06-07 15:52:00,77.0,72.0,29.94,SSW,208,3.1,3.7,84,0.00,,,0.02,TxWx,2013-06-07 19:52:00,
2013-06-07 15:53:00,77.0,72.0,29.95,South,186,1.9,2.5,84,0.00,,,0.02,TxWx,2013-06-07 19:53:00,
2013-06-07 15:58:00,77.0,72.0,29.95,SSW,208,4.3,4.3,85,0.00,,,0.02,TxWx,2013-06-07 19:58:00,
2013-06-07 15:59:00,77.1,72.0,29.95,SSE,163,3.1,3.7,85,0.00,,,0.02,TxWx,2013-06-07 19:59:00,
2013-06-07 16:03:00,77.3,72.0,29.95,WSW,253,3.1,3.1,85,0.00,,,0.02,TxWx,2013-06-07 20:03:00,
2013-06-07 16:04:00,77.3,72.0,29.96,SW,231,5.6,6.2,85,0.00,,,0.02,TxWx,2013-06-07 20:04:00,
2013-06-07 16:05:00,77.3,72.0,29.95,SSW,208,5.0,5.6,85,0.00,,,0.02,TxWx,2013-06-07 20:05:00,
2013-06-07 16:08:00,77.3,72.0,29.95,SSE,163,3.7,5.0,85,0.00,,,0.02,TxWx,2013-06-07 20:08:00,
2013-06-07 16:10:00,77.3,72.0,29.95,WSW,253,3.1,3.7,85,0.00,,,0.02,TxWx,2013-06-07 20:10:00,
2013-06-07 16:11:00,77.2,72.0,29.95,SSW,208,4.3,5.6,85,0.00,,,0.02,TxWx,2013-06-07 20:11:00,
2013-06-07 16:14:00,76.9,72.0,29.96,SW,231,8.0,8.0,85,0.00,,,0.02,TxWx,2013-06-07 20:14:00,
2013-06-07 16:15:00,76.9,72.0,29.96,SW,231,3.1,3.1,85,0.00,,,0.02,TxWx,2013-06-07 20:15:00,
2013-06-07 16:17:00,77.0,72.0,29.96,WSW,253,3.1,3.7,85,0.00,,,0.02,TxWx,2013-06-07 20:17:00,
2013-06-07 16:19:00,76.9,72.0,29.96,WSW,253,1.2,1.9,85,0.00,,,0.02,TxWx,2013-06-07 20:19:00,
2013-06-07 16:20:00,77.1,72.0,29.97,SSW,208,5.6,6.2,85,0.00,,,0.02,TxWx,2013-06-07 20:20:00,
2013-06-07 16:22:00,77.2,72.0,29.97,SW,231,3.1,3.7,85,0.00,,,0.02,TxWx,2013-06-07 20:22:00,
2013-06-07 16:25:00,77.2,72.0,29.97,SW,231,6.8,6.8,85,0.00,,,0.02,TxWx,2013-06-07 20:25:00,
2013-06-07 16:26:00,77.1,72.0,29.97,SW,231,7.4,7.4,84,0.00,,,0.02,TxWx,2013-06-07 20:26:00,
2013-06-07 16:27:00,77.0,72.0,29.97,WSW,253,5.0,5.0,84,0.00,,,0.02,TxWx,2013-06-07 20:27:00,
2013-06-07 16:28:00,76.9,72.0,29.97,SSW,208,10.5,10.5,84,0.00,,,0.02,TxWx,2013-06-07 20:28:00,
2013-06-07 16:30:00,76.8,72.0,29.97,WNW,298,4.3,5.6,84,0.00,,,0.02,TxWx,2013-06-07 20:30:00,
2013-06-07 16:33:00,76.7,72.0,29.96,West,276,8.7,9.3,85,0.06,,,0.03,TxWx,2013-06-07 20:33:00,
2013-06-07 16:34:00,76.7,72.0,29.96,WSW,253,7.4,9.9,86,0.06,,,0.03,TxWx,2013-06-07 20:34:00,
2013-06-07 16:35:00,76.4,71.0,29.96,WSW,253,7.4,8.7,86,0.06,,,0.04,TxWx,2013-06-07 20:35:00,
2013-06-07 16:37:00,76.5,73.0,29.96,WSW,253,7.4,9.9,87,0.06,,,0.06,TxWx,2013-06-07 20:37:00,
2013-06-07 16:39:00,76.5,72.0,29.96,SW,231,11.1,11.1,88,0.06,,,0.11,TxWx,2013-06-07 20:39:00,
2013-06-07 16:40:00,76.5,72.0,29.96,WSW,253,6.2,6.8,88,0.06,,,0.12,TxWx,2013-06-07 20:40:00,
2013-06-07 16:41:00,76.3,72.0,29.96,SSW,208,12.4,13.0,88,0.06,,,0.16,TxWx,2013-06-07 20:41:00,
2013-06-07 16:42:00,76.0,72.0,29.96,WSW,253,6.8,6.8,88,0.06,,,0.18,TxWx,2013-06-07 20:42:00,
2013-06-07 16:44:00,75.7,72.0,29.96,WSW,253,7.4,9.9,89,0.90,,,0.19,TxWx,2013-06-07 20:44:00,
2013-06-07 16:46:00,75.4,71.0,29.96,WSW,253,12.4,13.6,89,0.90,,,0.23,TxWx,2013-06-07 20:46:00,
2013-06-07 16:47:00,75.5,71.0,29.96,WSW,253,16.1,16.1,89,0.90,,,0.24,TxWx,2013-06-07 20:47:00,
2013-06-07 16:48:00,75.4,71.0,29.96,WSW,253,11.8,12.4,89,0.90,,,0.24,TxWx,2013-06-07 20:48:00,
2013-06-07 16:52:00,75.7,73.0,29.96,WSW,253,5.6,6.2,89,0.90,,,0.24,TxWx,2013-06-07 20:52:00,
2013-06-07 16:55:00,75.7,73.0,29.96,SW,231,3.7,3.7,89,0.36,,,0.24,TxWx,2013-06-07 20:55:00,
2013-06-07 16:56:00,75.7,73.0,29.96,WSW,253,4.3,4.3,90,0.36,,,0.24,TxWx,2013-06-07 20:56:00,
2013-06-07 16:57:00,75.7,73.0,29.96,WNW,298,3.1,3.1,90,0.36,,,0.24,TxWx,2013-06-07 20:57:00,
2013-06-07 16:59:00,75.7,73.0,29.96,WNW,298,5.0,5.6,90,0.36,,,0.25,TxWx,2013-06-07 20:59:00,
2013-06-07 17:01:00,75.5,73.0,29.96,WSW,253,4.3,5.6,89,0.36,,,0.25,TxWx,2013-06-07 21:01:00,
2013-06-07 17:03:00,75.5,73.0,29.96,WSW,253,3.7,3.7,90,0.36,,,0.25,TxWx,2013-06-07 21:03:00,
2013-06-07 17:04:00,75.6,73.0,29.96,WSW,253,3.1,3.7,90,0.06,,,0.25,TxWx,2013-06-07 21:04:00,
2013-06-07 17:06:00,75.8,73.0,29.96,WSW,253,5.6,6.2,90,0.06,,,0.25,TxWx,2013-06-07 21:06:00,
2013-06-07 17:09:00,75.5,73.0,29.96,WSW,253,6.2,6.8,90,0.06,,,0.25,TxWx,2013-06-07 21:09:00,
2013-06-07 17:10:00,75.7,73.0,29.96,West,276,5.6,5.6,90,0.06,,,0.25,TxWx,2013-06-07 21:10:00,
2013-06-07 17:12:00,75.3,72.0,29.96,West,276,5.6,6.2,89,0.06,,,0.25,TxWx,2013-06-07 21:12:00,
2013-06-07 17:14:00,75.5,73.0,29.96,West,276,6.8,6.8,90,0.00,,,0.25,TxWx,2013-06-07 21:14:00,
2013-06-07 17:16:00,75.6,73.0,29.97,WNW,298,6.8,7.4,89,0.00,,,0.26,TxWx,2013-06-07 21:16:00,
2013-06-07 17:17:00,75.4,71.0,29.97,WSW,253,5.0,5.6,89,0.00,,,0.26,TxWx,2013-06-07 21:17:00,
2013-06-07 17:19:00,75.6,73.0,29.97,WSW,253,4.3,5.0,89,0.00,,,0.26,TxWx,2013-06-07 21:19:00,
2013-06-07 17:21:00,75.7,73.0,29.97,West,276,5.6,6.2,89,0.00,,,0.26,TxWx,2013-06-07 21:21:00,
2013-06-07 17:22:00,75.7,72.0,29.97,SW,231,5.6,5.6,89,0.00,,,0.26,TxWx,2013-06-07 21:22:00,
2013-06-07 17:23:00,75.5,72.0,29.97,WSW,253,5.0,5.6,89,0.06,,,0.26,TxWx,2013-06-07 21:23:00,
2013-06-07 17:24:00,75.3,71.0,29.97,WSW,253,8.0,8.0,88,0.06,,,0.26,TxWx,2013-06-07 21:24:00,
2013-06-07 17:27:00,76.0,72.0,29.97,WNW,298,6.8,6.8,89,0.06,,,0.26,TxWx,2013-06-07 21:27:00,
2013-06-07 17:28:00,76.0,72.0,29.97,WSW,253,6.2,6.2,89,0.06,,,0.26,TxWx,2013-06-07 21:28:00,
2013-06-07 17:29:00,75.7,72.0,29.97,West,276,6.8,6.8,88,0.06,,,0.26,TxWx,2013-06-07 21:29:00,
2013-06-07 17:33:00,75.9,72.0,29.97,West,276,6.8,6.8,88,0.06,,,0.26,TxWx,2013-06-07 21:33:00,
2013-06-07 17:34:00,75.9,72.0,29.97,WSW,253,8.7,8.7,88,0.00,,,0.26,TxWx,2013-06-07 21:34:00,
2013-06-07 17:37:00,75.8,72.0,29.97,WSW,253,5.0,5.6,88,0.00,,,0.26,TxWx,2013-06-07 21:37:00,
2013-06-07 17:39:00,75.9,72.0,29.97,West,276,3.1,3.7,88,0.00,,,0.27,TxWx,2013-06-07 21:39:00,
2013-06-07 17:40:00,75.6,72.0,29.97,WSW,253,5.0,6.2,88,0.00,,,0.27,TxWx,2013-06-07 21:40:00,
2013-06-07 17:44:00,75.8,72.0,29.97,West,276,4.3,5.0,88,0.06,,,0.27,TxWx,2013-06-07 21:44:00,
2013-06-07 17:45:00,75.8,72.0,29.97,West,276,3.7,3.7,88,0.06,,,0.28,TxWx,2013-06-07 21:45:00,
2013-06-07 17:46:00,75.8,72.0,29.97,West,276,5.0,5.6,88,0.06,,,0.28,TxWx,2013-06-07 21:46:00,
2013-06-07 17:48:00,75.5,72.0,29.97,WSW,253,3.1,3.1,88,0.06,,,0.28,TxWx,2013-06-07 21:48:00,
2013-06-07 17:49:00,75.7,72.0,29.97,West,276,2.5,2.5,88,0.06,,,0.28,TxWx,2013-06-07 21:49:00,
2013-06-07 17:51:00,75.4,71.0,29.97,WSW,253,4.3,5.0,88,0.06,,,0.28,TxWx,2013-06-07 21:51:00,
2013-06-07 17:52:00,75.4,71.0,29.97,WSW,253,3.7,3.7,88,0.06,,,0.28,TxWx,2013-06-07 21:52:00,
2013-06-07 17:54:00,75.5,72.0,29.97,WSW,253,3.1,3.1,88,0.06,,,0.28,TxWx,2013-06-07 21:54:00,
2013-06-07 17:58:00,75.5,72.0,29.97,WSW,253,1.9,2.5,88,0.06,,,0.29,TxWx,2013-06-07 21:58:00,
2013-06-07 17:59:00,75.5,72.0,29.98,WSW,253,3.7,4.3,89,0.06,,,0.29,TxWx,2013-06-07 21:59:00,
2013-06-07 18:00:00,75.4,71.0,29.98,SW,231,4.3,4.3,88,0.06,,,0.29,TxWx,2013-06-07 22:00:00,
2013-06-07 18:04:00,75.4,71.0,29.98,West,276,5.6,5.6,89,0.06,,,0.29,TxWx,2013-06-07 22:04:00,
2013-06-07 18:05:00,75.5,71.0,29.98,WSW,253,5.6,5.6,89,0.06,,,0.29,TxWx,2013-06-07 22:05:00,
2013-06-07 18:06:00,75.5,73.0,29.98,West,276,5.6,6.2,89,0.06,,,0.29,TxWx,2013-06-07 22:06:00,
2013-06-07 18:07:00,75.8,73.0,29.98,WSW,253,3.7,3.7,89,0.06,,,0.29,TxWx,2013-06-07 22:07:00,
2013-06-07 18:11:00,75.6,73.0,29.98,WSW,253,3.1,3.1,89,0.06,,,0.29,TxWx,2013-06-07 22:11:00,
2013-06-07 18:12:00,75.7,73.0,29.99,West,276,1.9,2.5,89,0.06,,,0.29,TxWx,2013-06-07 22:12:00,
2013-06-07 18:16:00,75.5,73.0,29.99,WNW,298,1.2,1.2,89,0.06,,,0.30,TxWx,2013-06-07 22:16:00,
2013-06-07 18:17:00,75.5,73.0,29.98,WNW,298,0.0,0.6,89,0.06,,,0.31,TxWx,2013-06-07 22:17:00,
2013-06-07 18:19:00,75.6,73.0,29.98,WNW,298,0.6,1.2,89,0.06,,,0.31,TxWx,2013-06-07 22:19:00,
2013-06-07 18:21:00,75.6,73.0,29.99,WNW,298,1.2,1.2,89,0.06,,,0.32,TxWx,2013-06-07 22:21:00,
2013-06-07 18:23:00,75.6,73.0,29.99,WNW,298,1.2,1.9,89,0.06,,,0.32,TxWx,2013-06-07 22:23:00,
2013-06-07 18:24:00,75.6,73.0,29.99,SW,231,3.1,3.1,89,0.12,,,0.32,TxWx,2013-06-07 22:24:00,
2013-06-07 18:27:00,75.5,73.0,29.98,South,186,1.9,2.5,89,0.12,,,0.33,TxWx,2013-06-07 22:27:00,
2013-06-07 18:28:00,75.4,72.0,29.98,SSE,163,1.9,2.5,89,0.12,,,0.34,TxWx,2013-06-07 22:28:00,
2013-06-07 18:29:00,75.4,72.0,29.98,SSE,163,3.1,3.1,89,0.12,,,0.34,TxWx,2013-06-07 22:29:00,
2013-06-07 18:33:00,75.4,72.0,29.97,South,186,3.1,3.1,89,0.12,,,0.34,TxWx,2013-06-07 22:33:00,
2013-06-07 18:34:00,75.3,72.0,29.97,SSE,163,4.3,4.3,89,0.12,,,0.35,TxWx,2013-06-07 22:34:00,
2013-06-07 18:38:00,75.3,72.0,29.97,SSW,208,2.5,2.5,90,0.12,,,0.36,TxWx,2013-06-07 22:38:00,
2013-06-07 18:39:00,75.3,72.0,29.97,South,186,1.2,1.2,90,0.12,,,0.36,TxWx,2013-06-07 22:39:00,
2013-06-07 18:41:00,75.3,72.0,29.98,South,186,0.6,1.2,90,0.12,,,0.36,TxWx,2013-06-07 22:41:00,
2013-06-07 18:43:00,75.4,72.0,29.98,SW,231,1.2,1.9,90,0.24,,,0.38,TxWx,2013-06-07 22:43:00,
2013-06-07 18:45:00,75.4,72.0,29.98,SSW,208,1.2,1.2,90,0.24,,,0.39,TxWx,2013-06-07 22:45:00,
2013-06-07 18:47:00,75.4,72.0,29.98,SW,231,2.5,2.5,90,0.24,,,0.39,TxWx,2013-06-07 22:47:00,
2013-06-07 18:48:00,75.3,72.0,29.98,SSW,208,2.5,2.5,90,0.24,,,0.39,TxWx,2013-06-07 22:48:00,
2013-06-07 18:49:00,75.3,72.0,29.98,South,186,2.5,2.5,90,0.24,,,0.39,TxWx,2013-06-07 22:49:00,
2013-06-07 18:51:00,75.2,72.0,29.98,SE,141,4.3,4.3,90,0.24,,,0.40,TxWx,2013-06-07 22:51:00,
2013-06-07 18:54:00,75.0,72.0,29.98,SW,231,4.3,4.3,90,0.12,,,0.40,TxWx,2013-06-07 22:54:00,
2013-06-07 18:55:00,75.0,72.0,29.98,SSE,163,1.9,1.9,90,0.12,,,0.40,TxWx,2013-06-07 22:55:00,
2013-06-07 18:57:00,74.9,72.0,29.99,SSE,163,2.5,2.5,90,0.12,,,0.41,TxWx,2013-06-07 22:57:00,
2013-06-07 19:00:00,74.9,72.0,29.99,South,186,0.6,1.2,90,0.12,,,0.42,TxWx,2013-06-07 23:00:00,
2013-06-07 19:01:00,74.9,72.0,29.99,SSW,208,1.9,1.9,90,0.12,,,0.42,TxWx,2013-06-07 23:01:00,
2013-06-07 19:02:00,74.9,72.0,29.99,South,186,1.2,1.2,90,0.12,,,0.43,TxWx,2013-06-07 23:02:00,
2013-06-07 19:05:00,75.1,72.0,29.99,WSW,253,3.1,3.1,90,0.18,,,0.44,TxWx,2013-06-07 23:05:00,
2013-06-07 19:06:00,75.2,72.0,29.99,SW,231,3.1,3.1,91,0.18,,,0.45,TxWx,2013-06-07 23:06:00,
2013-06-07 19:08:00,75.3,72.0,29.99,WSW,253,3.7,3.7,91,0.18,,,0.45,TxWx,2013-06-07 23:08:00,
2013-06-07 19:10:00,75.1,72.0,29.99,WSW,253,2.5,3.1,91,0.18,,,0.46,TxWx,2013-06-07 23:10:00,
2013-06-07 19:12:00,75.1,72.0,29.99,West,276,5.0,5.0,91,0.18,,,0.47,TxWx,2013-06-07 23:12:00,
2013-06-07 19:15:00,75.1,72.0,29.99,WSW,253,6.8,6.8,91,0.30,,,0.48,TxWx,2013-06-07 23:15:00,
2013-06-07 19:17:00,75.1,72.0,29.99,WSW,253,5.0,5.6,91,0.30,,,0.48,TxWx,2013-06-07 23:17:00,
2013-06-07 19:18:00,75.0,72.0,29.99,WSW,253,3.1,3.1,91,0.30,,,0.48,TxWx,2013-06-07 23:18:00,
2013-06-07 19:20:00,75.1,72.0,29.99,SSW,208,3.7,3.7,91,0.30,,,0.49,TxWx,2013-06-07 23:20:00,
2013-06-07 19:21:00,75.0,72.0,29.99,SW,231,4.3,4.3,91,0.30,,,0.49,TxWx,2013-06-07 23:21:00,
2013-06-07 19:23:00,75.1,72.0,29.99,WSW,253,5.0,5.6,91,0.30,,,0.49,TxWx,2013-06-07 23:23:00,
2013-06-07 19:25:00,75.1,72.0,30.00,WSW,253,3.7,4.3,91,0.06,,,0.49,TxWx,2013-06-07 23:25:00,
2013-06-07 19:26:00,75.1,72.0,30.00,WSW,253,5.0,5.6,91,0.06,,,0.50,TxWx,2013-06-07 23:26:00,
2013-06-07 19:27:00,75.1,72.0,30.00,WSW,253,5.0,5.0,91,0.06,,,0.50,TxWx,2013-06-07 23:27:00,
2013-06-07 19:28:00,75.0,72.0,30.00,WSW,253,6.2,7.4,91,0.06,,,0.50,TxWx,2013-06-07 23:28:00,
2013-06-07 19:31:00,75.1,72.0,30.00,WSW,253,6.2,6.8,91,0.06,,,0.51,TxWx,2013-06-07 23:31:00,
2013-06-07 19:32:00,75.1,72.0,30.00,West,276,5.0,5.0,91,0.06,,,0.51,TxWx,2013-06-07 23:32:00,
2013-06-07 19:33:00,75.0,72.0,30.00,WSW,253,6.8,6.8,91,0.12,,,0.51,TxWx,2013-06-07 23:33:00,
2013-06-07 19:35:00,75.0,72.0,30.00,WSW,253,7.4,7.4,91,0.12,,,0.52,TxWx,2013-06-07 23:35:00,
2013-06-07 19:37:00,75.2,72.0,30.00,WSW,253,11.1,11.1,91,0.12,,,0.52,TxWx,2013-06-07 23:37:00,
2013-06-07 19:38:00,75.0,72.0,30.00,WSW,253,8.7,9.3,91,0.12,,,0.52,TxWx,2013-06-07 23:38:00,
2013-06-07 19:40:00,75.1,72.0,30.00,WSW,253,9.3,9.9,91,0.12,,,0.53,TxWx,2013-06-07 23:40:00,
2013-06-07 19:41:00,75.1,72.0,30.00,West,276,6.8,6.8,91,0.12,,,0.54,TxWx,2013-06-07 23:41:00,
2013-06-07 19:43:00,75.2,72.0,30.00,WSW,253,4.3,4.3,91,0.12,,,0.54,TxWx,2013-06-07 23:43:00,
2013-06-07 19:45:00,75.1,72.0,30.00,WSW,253,5.6,5.6,91,0.18,,,0.55,TxWx,2013-06-07 23:45:00,
2013-06-07 19:46:00,75.0,72.0,30.00,WSW,253,6.2,6.2,91,0.18,,,0.55,TxWx,2013-06-07 23:46:00,
2013-06-07 19:48:00,75.0,72.0,30.00,WSW,253,5.6,5.6,91,0.18,,,0.55,TxWx,2013-06-07 23:48:00,
2013-06-07 19:50:00,74.9,72.0,30.00,WSW,253,5.6,6.8,91,0.18,,,0.56,TxWx,2013-06-07 23:50:00,
2013-06-07 19:52:00,75.0,72.0,30.00,WSW,253,6.8,6.8,91,0.18,,,0.57,TxWx,2013-06-07 23:52:00,
2013-06-07 19:54:00,75.2,72.0,30.00,WSW,253,5.6,5.6,91,0.18,,,0.58,TxWx,2013-06-07 23:54:00,
2013-06-07 19:56:00,75.1,72.0,30.00,WSW,253,5.6,6.2,91,0.18,,,0.58,TxWx,2013-06-07 23:56:00,
2013-06-07 19:58:00,75.3,72.0,30.00,WSW,253,6.8,7.4,92,0.18,,,0.59,TxWx,2013-06-07 23:58:00,
2013-06-07 19:59:00,75.1,72.0,30.00,WSW,253,7.4,7.4,91,0.18,,,0.59,TxWx,2013-06-07 23:59:00,
2013-06-07 20:02:00,75.2,72.0,30.00,WNW,298,3.7,5.0,91,0.18,,,0.59,TxWx,2013-06-08 00:02:00,
2013-06-07 20:03:00,75.1,72.0,30.00,West,276,5.0,5.0,91,0.18,,,0.60,TxWx,2013-06-08 00:03:00,
2013-06-07 20:04:00,75.0,72.0,30.00,WSW,253,5.6,5.6,91,0.18,,,0.60,TxWx,2013-06-08 00:04:00,
2013-06-07 20:05:00,75.0,72.0,30.00,SW,231,3.1,3.7,91,0.18,,,0.60,TxWx,2013-06-08 00:05:00,
2013-06-07 20:07:00,75.1,72.0,30.00,WSW,253,4.3,5.0,91,0.18,,,0.60,TxWx,2013-06-08 00:07:00,
2013-06-07 20:09:00,75.1,72.0,30.00,SW,231,3.7,3.7,91,0.18,,,0.60,TxWx,2013-06-08 00:09:00,
2013-06-07 20:10:00,75.2,72.0,30.00,SSW,208,6.2,6.2,92,0.18,,,0.60,TxWx,2013-06-08 00:10:00,
2013-06-07 20:11:00,75.2,72.0,30.00,SW,231,5.6,6.8,92,0.18,,,0.60,TxWx,2013-06-08 00:11:00,
2013-06-07 20:13:00,75.1,72.0,30.00,WSW,253,7.4,8.7,92,0.18,,,0.60,TxWx,2013-06-08 00:13:00,
2013-06-07 20:14:00,75.0,72.0,30.00,WNW,298,8.0,8.7,91,0.00,,,0.61,TxWx,2013-06-08 00:14:00,
2013-06-07 20:15:00,75.2,72.0,29.99,WSW,253,6.8,6.8,92,0.00,,,0.61,TxWx,2013-06-08 00:15:00,
2013-06-07 20:17:00,75.1,72.0,29.99,WSW,253,5.6,5.6,92,0.00,,,0.61,TxWx,2013-06-08 00:17:00,
2013-06-07 20:20:00,75.0,72.0,29.99,WSW,253,6.2,6.8,92,0.00,,,0.61,TxWx,2013-06-08 00:20:00,
2013-06-07 20:22:00,75.1,72.0,29.99,WSW,253,5.6,6.2,92,0.00,,,0.61,TxWx,2013-06-08 00:22:00,
2013-06-07 20:25:00,75.0,72.0,29.99,WNW,298,3.7,4.3,92,0.12,,,0.62,TxWx,2013-06-08 00:25:00,
2013-06-07 20:26:00,75.0,72.0,29.99,WSW,253,5.0,5.6,92,0.12,,,0.62,TxWx,2013-06-08 00:26:00,
2013-06-07 20:27:00,74.9,72.0,29.99,West,276,2.5,3.1,92,0.12,,,0.62,TxWx,2013-06-08 00:27:00,
2013-06-07 20:29:00,75.1,72.0,29.99,SW,231,3.1,3.1,92,0.12,,,0.62,TxWx,2013-06-08 00:29:00,
2013-06-07 20:33:00,75.0,72.0,29.98,SSW,208,1.2,1.2,92,0.12,,,0.62,TxWx,2013-06-08 00:33:00,
2013-06-07 20:34:00,75.0,72.0,29.98,East,96,1.2,1.2,92,0.00,,,0.62,TxWx,2013-06-08 00:34:00,
2013-06-07 20:37:00,74.8,72.0,29.98,South,186,1.9,1.9,92,0.00,,,0.63,TxWx,2013-06-08 00:37:00,
2013-06-07 20:39:00,74.6,72.0,29.98,East,96,1.9,2.5,92,0.00,,,0.63,TxWx,2013-06-08 00:39:00,
2013-06-07 20:40:00,74.5,72.0,29.98,SSE,163,5.6,5.6,92,0.00,,,0.63,TxWx,2013-06-08 00:40:00,
2013-06-07 20:44:00,74.6,72.0,29.98,SE,141,3.7,4.3,92,0.06,,,0.63,TxWx,2013-06-08 00:44:00,
2013-06-07 20:45:00,74.6,72.0,29.98,SSW,208,2.5,3.7,92,0.06,,,0.64,TxWx,2013-06-08 00:45:00,
2013-06-07 20:49:00,74.6,72.0,29.98,SE,141,3.1,3.1,92,0.06,,,0.64,TxWx,2013-06-08 00:49:00,
2013-06-07 20:50:00,74.6,72.0,29.98,SSE,163,3.1,3.1,92,0.06,,,0.64,TxWx,2013-06-08 00:50:00,
2013-06-07 20:51:00,74.6,72.0,29.98,SSE,163,2.5,2.5,92,0.06,,,0.64,TxWx,2013-06-08 00:51:00,
2013-06-07 20:54:00,74.6,72.0,29.98,South,186,2.5,2.5,92,0.06,,,0.64,TxWx,2013-06-08 00:54:00,
2013-06-07 20:55:00,74.6,72.0,29.97,South,186,2.5,2.5,92,0.06,,,0.64,TxWx,2013-06-08 00:55:00,
2013-06-07 20:56:00,74.6,72.0,29.97,South,186,2.5,3.1,92,0.06,,,0.64,TxWx,2013-06-08 00:56:00,
2013-06-07 20:57:00,74.6,72.0,29.97,SSE,163,3.1,3.7,92,0.06,,,0.64,TxWx,2013-06-08 00:57:00,
2013-06-07 21:01:00,74.8,72.0,29.96,SE,141,4.3,5.6,92,0.06,,,0.65,TxWx,2013-06-08 01:01:00,
2013-06-07 21:02:00,74.9,73.0,29.96,SE,141,4.3,5.6,92,0.06,,,0.65,TxWx,2013-06-08 01:02:00,
2013-06-07 21:03:00,74.9,73.0,29.96,SE,141,5.6,5.6,92,0.06,,,0.65,TxWx,2013-06-08 01:03:00,
2013-06-07 21:04:00,74.9,73.0,29.96,SE,141,7.4,7.4,92,0.06,,,0.65,TxWx,2013-06-08 01:04:00,
2013-06-07 21:07:00,74.9,72.0,29.96,SE,141,8.0,8.7,92,0.06,,,0.65,TxWx,2013-06-08 01:07:00,
2013-06-07 21:08:00,74.8,72.0,29.96,SE,141,8.0,8.0,92,0.06,,,0.65,TxWx,2013-06-08 01:08:00,
2013-06-07 21:11:00,75.0,72.0,29.96,SSE,163,8.0,8.0,92,0.06,,,0.65,TxWx,2013-06-08 01:11:00,
2013-06-07 21:13:00,74.9,72.0,29.96,SSE,163,6.8,8.0,92,0.06,,,0.65,TxWx,2013-06-08 01:13:00,
2013-06-07 21:15:00,74.9,72.0,29.97,SW,231,4.3,4.3,92,0.00,,,0.65,TxWx,2013-06-08 01:15:00,
2013-06-07 21:16:00,74.9,72.0,29.97,South,186,1.2,1.2,92,0.00,,,0.65,TxWx,2013-06-08 01:16:00,
2013-06-07 21:19:00,74.9,72.0,29.97,SSW,208,0.6,0.6,92,0.00,,,0.65,TxWx,2013-06-08 01:19:00,
2013-06-07 21:20:00,74.8,72.0,29.97,SSW,208,2.5,2.5,92,0.00,,,0.65,TxWx,2013-06-08 01:20:00,
2013-06-07 21:22:00,74.8,72.0,29.97,WNW,298,1.9,1.9,92,0.00,,,0.65,TxWx,2013-06-08 01:22:00,
2013-06-07 21:23:00,74.8,72.0,29.97,WNW,298,1.9,1.9,92,0.00,,,0.65,TxWx,2013-06-08 01:23:00,
2013-06-07 21:24:00,74.9,72.0,29.98,West,276,2.5,2.5,92,0.00,,,0.65,TxWx,2013-06-08 01:24:00,
2013-06-07 21:25:00,74.9,72.0,29.97,WSW,253,1.9,1.9,92,0.00,,,0.65,TxWx,2013-06-08 01:25:00,
2013-06-07 21:27:00,74.9,72.0,29.98,SSW,208,1.9,2.5,92,0.00,,,0.65,TxWx,2013-06-08 01:27:00,
2013-06-07 21:29:00,74.9,72.0,29.98,SW,231,2.5,2.5,92,0.00,,,0.65,TxWx,2013-06-08 01:29:00,
2013-06-07 21:30:00,75.0,72.0,29.97,SSW,208,1.2,1.2,92,0.00,,,0.65,TxWx,2013-06-08 01:30:00,
2013-06-07 21:31:00,74.9,72.0,29.98,SW,231,2.5,3.1,92,0.00,,,0.65,TxWx,2013-06-08 01:31:00,
2013-06-07 21:33:00,74.9,72.0,29.98,North,6,0.6,0.6,92,0.00,,,0.65,TxWx,2013-06-08 01:33:00,
2013-06-07 21:35:00,74.9,72.0,29.97,SSW,208,2.5,2.5,92,0.00,,,0.65,TxWx,2013-06-08 01:35:00,
2013-06-07 21:36:00,74.9,72.0,29.97,South,186,1.2,1.9,92,0.00,,,0.65,TxWx,2013-06-08 01:36:00,
2013-06-07 21:41:00,74.8,72.0,29.98,South,186,1.2,1.2,92,0.00,,,0.65,TxWx,2013-06-08 01:41:00,
2013-06-07 21:42:00,74.8,72.0,29.98,South,186,1.2,1.2,92,0.00,,,0.65,TxWx,2013-06-08 01:42:00,
2013-06-07 21:44:00,74.8,72.0,29.98,South,186,0.6,0.6,92,0.00,,,0.65,TxWx,2013-06-08 01:44:00,
2013-06-07 21:47:00,74.7,72.0,29.98,South,186,0.6,0.6,92,0.00,,,0.65,TxWx,2013-06-08 01:47:00,
2013-06-07 21:48:00,74.8,72.0,29.98,South,186,1.2,1.2,92,0.00,,,0.65,TxWx,2013-06-08 01:48:00,
2013-06-07 21:49:00,74.8,72.0,29.98,South,186,1.2,1.9,92,0.00,,,0.65,TxWx,2013-06-08 01:49:00,
2013-06-07 21:53:00,74.8,72.0,29.98,SSW,208,3.1,3.1,92,0.00,,,0.65,TxWx,2013-06-08 01:53:00,
2013-06-07 21:55:00,74.8,72.0,29.98,SSE,163,3.1,3.1,92,0.00,,,0.65,TxWx,2013-06-08 01:55:00,
2013-06-07 21:56:00,74.8,72.0,29.98,South,186,3.1,3.1,92,0.00,,,0.65,TxWx,2013-06-08 01:56:00,
2013-06-07 21:59:00,74.8,72.0,29.98,South,186,1.9,1.9,92,0.00,,,0.65,TxWx,2013-06-08 01:59:00,
2013-06-07 22:00:00,74.9,72.0,29.98,SW,231,0.6,0.6,92,0.00,,,0.65,TxWx,2013-06-08 02:00:00,
2013-06-07 22:02:00,74.9,72.0,29.98,South,186,1.9,1.9,92,0.00,,,0.65,TxWx,2013-06-08 02:02:00,
2013-06-07 22:05:00,74.9,72.0,29.98,South,186,0.6,1.2,92,0.00,,,0.65,TxWx,2013-06-08 02:05:00,
2013-06-07 22:07:00,75.0,72.0,29.98,South,186,1.2,1.2,92,0.00,,,0.65,TxWx,2013-06-08 02:07:00,
2013-06-07 22:08:00,75.0,72.0,29.98,South,186,1.9,1.9,92,0.00,,,0.65,TxWx,2013-06-08 02:08:00,
2013-06-07 22:09:00,75.0,72.0,29.98,South,186,0.6,0.6,92,0.00,,,0.65,TxWx,2013-06-08 02:09:00,
2013-06-07 22:11:00,75.0,72.0,29.98,South,186,1.2,1.2,92,0.00,,,0.65,TxWx,2013-06-08 02:11:00,
2013-06-07 22:13:00,75.1,72.0,29.98,South,186,1.2,1.2,92,0.00,,,0.65,TxWx,2013-06-08 02:13:00,
2013-06-07 22:14:00,75.1,72.0,29.98,South,186,1.9,1.9,92,0.00,,,0.65,TxWx,2013-06-08 02:14:00,
2013-06-07 22:16:00,75.1,72.0,29.99,South,186,0.6,1.2,92,0.00,,,0.65,TxWx,2013-06-08 02:16:00,
2013-06-07 22:17:00,75.1,72.0,29.99,South,186,0.6,0.6,92,0.00,,,0.65,TxWx,2013-06-08 02:17:00,
2013-06-07 22:21:00,75.2,72.0,29.98,NW,321,1.2,1.9,92,0.00,,,0.65,TxWx,2013-06-08 02:21:00,
2013-06-07 22:23:00,75.3,72.0,29.98,NW,321,1.2,1.2,92,0.00,,,0.65,TxWx,2013-06-08 02:23:00,
2013-06-07 22:27:00,75.4,72.0,29.98,NW,321,0.6,0.6,92,0.00,,,0.65,TxWx,2013-06-08 02:27:00,
2013-06-07 22:29:00,75.4,72.0,29.98,NW,321,1.9,1.9,92,0.00,,,0.65,TxWx,2013-06-08 02:29:00,
2013-06-07 22:30:00,75.4,72.0,29.98,NW,321,0.6,1.2,92,0.00,,,0.65,TxWx,2013-06-08 02:30:00,
2013-06-07 22:31:00,75.4,72.0,29.98,NW,321,0.6,1.2,92,0.00,,,0.65,TxWx,2013-06-08 02:31:00,
2013-06-07 22:32:00,75.5,72.0,29.98,WSW,253,0.0,0.6,92,0.00,,,0.65,TxWx,2013-06-08 02:32:00,
2013-06-07 22:34:00,75.4,72.0,29.98,South,186,1.9,1.9,92,0.00,,,0.65,TxWx,2013-06-08 02:34:00,
2013-06-07 22:35:00,75.4,72.0,29.99,SW,231,1.2,1.2,92,0.00,,,0.65,TxWx,2013-06-08 02:35:00,
2013-06-07 22:36:00,75.4,72.0,29.99,SW,231,1.2,1.2,92,0.00,,,0.65,TxWx,2013-06-08 02:36:00,
2013-06-07 22:39:00,75.4,72.0,29.99,NNW,343,0.6,0.6,92,0.00,,,0.65,TxWx,2013-06-08 02:39:00,
2013-06-07 22:40:00,75.4,72.0,29.99,NNW,343,0.0,0.6,92,0.00,,,0.65,TxWx,2013-06-08 02:40:00,
2013-06-07 22:41:00,75.4,72.0,29.99,NNW,343,0.6,1.2,92,0.00,,,0.65,TxWx,2013-06-08 02:41:00,
2013-06-07 22:43:00,75.5,72.0,29.99,NNW,343,0.6,0.6,92,0.00,,,0.65,TxWx,2013-06-08 02:43:00,
2013-06-07 22:44:00,75.7,73.0,29.99,NNW,343,2.5,3.1,92,0.00,,,0.65,TxWx,2013-06-08 02:44:00,
2013-06-07 22:46:00,75.7,73.0,29.99,NNW,343,1.9,2.5,92,0.00,,,0.65,TxWx,2013-06-08 02:46:00,
2013-06-07 22:47:00,75.6,73.0,29.99,South,186,1.9,2.5,92,0.00,,,0.65,TxWx,2013-06-08 02:47:00,
2013-06-07 22:49:00,75.5,73.0,29.99,SW,231,2.5,2.5,92,0.00,,,0.65,TxWx,2013-06-08 02:49:00,
2013-06-07 22:50:00,75.5,73.0,29.99,SW,231,1.9,2.5,92,0.00,,,0.66,TxWx,2013-06-08 02:50:00,
2013-06-07 22:51:00,75.5,73.0,29.99,SW,231,2.5,3.1,92,0.00,,,0.66,TxWx,2013-06-08 02:51:00,
2013-06-07 22:53:00,75.5,72.0,29.99,SW,231,2.5,2.5,92,0.06,,,0.66,TxWx,2013-06-08 02:53:00,
2013-06-07 22:57:00,75.5,73.0,29.99,WSW,253,3.1,3.7,92,0.06,,,0.66,TxWx,2013-06-08 02:57:00,
2013-06-07 22:58:00,75.4,72.0,30.00,WSW,253,3.7,5.0,92,0.06,,,0.66,TxWx,2013-06-08 02:58:00,
2013-06-07 22:59:00,75.4,72.0,30.00,WSW,253,3.1,3.7,92,0.06,,,0.66,TxWx,2013-06-08 02:59:00,
2013-06-07 23:00:00,75.5,72.0,30.00,WSW,253,3.1,3.1,92,0.06,,,0.66,TxWx,2013-06-08 03:00:00,
2013-06-07 23:04:00,75.4,72.0,30.00,SSW,208,2.5,2.5,92,0.00,,,0.66,TxWx,2013-06-08 03:04:00,
2013-06-07 23:05:00,75.4,72.0,30.00,SSW,208,2.5,2.5,92,0.00,,,0.66,TxWx,2013-06-08 03:05:00,
2013-06-07 23:06:00,75.4,72.0,30.00,SW,231,2.5,3.1,92,0.00,,,0.66,TxWx,2013-06-08 03:06:00,
2013-06-07 23:07:00,75.4,72.0,30.00,West,276,1.9,1.9,92,0.00,,,0.66,TxWx,2013-06-08 03:07:00,
2013-06-07 23:09:00,75.3,72.0,30.00,WSW,253,1.2,1.9,92,0.00,,,0.66,TxWx,2013-06-08 03:09:00,
2013-06-07 23:11:00,75.3,72.0,29.99,WSW,253,2.5,3.1,92,0.00,,,0.66,TxWx,2013-06-08 03:11:00,
2013-06-07 23:12:00,75.3,72.0,29.99,WSW,253,3.1,3.7,92,0.00,,,0.66,TxWx,2013-06-08 03:12:00,
2013-06-07 23:17:00,75.3,72.0,29.99,SW,231,1.2,1.2,92,0.00,,,0.66,TxWx,2013-06-08 03:17:00,
2013-06-07 23:18:00,75.3,72.0,29.99,SSW,208,1.9,1.9,92,0.00,,,0.66,TxWx,2013-06-08 03:18:00,
2013-06-07 23:19:00,75.3,72.0,29.99,WSW,253,1.2,1.9,92,0.00,,,0.66,TxWx,2013-06-08 03:19:00,
2013-06-07 23:24:00,75.3,72.0,29.99,West,276,0.6,0.6,92,0.00,,,0.66,TxWx,2013-06-08 03:24:00,
2013-06-07 23:26:00,75.4,72.0,29.99,West,276,0.0,0.0,92,0.00,,,0.66,TxWx,2013-06-08 03:26:00,
2013-06-07 23:29:00,75.3,72.0,29.99,West,276,1.2,1.9,92,0.00,,,0.66,TxWx,2013-06-08 03:29:00,
2013-06-07 23:30:00,75.3,72.0,29.99,NW,321,1.2,1.2,92,0.00,,,0.66,TxWx,2013-06-08 03:30:00,
2013-06-07 23:32:00,75.5,72.0,29.99,WSW,253,3.1,3.1,92,0.00,,,0.66,TxWx,2013-06-08 03:32:00,
2013-06-07 23:36:00,75.6,73.0,29.99,West,276,3.1,3.1,92,0.00,,,0.66,TxWx,2013-06-08 03:36:00,
2013-06-07 23:37:00,75.7,73.0,30.00,WSW,253,2.5,2.5,92,0.00,,,0.66,TxWx,2013-06-08 03:37:00,
2013-06-07 23:38:00,75.7,73.0,30.00,West,276,4.3,4.3,92,0.00,,,0.66,TxWx,2013-06-08 03:38:00,
2013-06-07 23:40:00,75.5,73.0,29.99,West,276,2.5,2.5,92,0.00,,,0.66,TxWx,2013-06-08 03:40:00,
2013-06-07 23:42:00,75.5,72.0,29.99,WSW,253,2.5,2.5,92,0.00,,,0.66,TxWx,2013-06-08 03:42:00,
2013-06-07 23:43:00,75.5,72.0,30.00,WSW,253,2.5,2.5,92,0.00,,,0.66,TxWx,2013-06-08 03:43:00,
2013-06-07 23:44:00,75.5,72.0,29.99,WSW,253,3.1,3.1,92,0.00,,,0.66,TxWx,2013-06-08 03:44:00,
2013-06-07 23:46:00,75.5,73.0,29.99,SW,231,2.5,2.5,92,0.00,,,0.66,TxWx,2013-06-08 03:46:00,
2013-06-07 23:48:00,75.5,73.0,29.99,WSW,253,1.9,1.9,92,0.00,,,0.66,TxWx,2013-06-08 03:48:00,
2013-06-07 23:49:00,75.6,73.0,30.00,SW,231,1.9,3.1,92,0.00,,,0.66,TxWx,2013-06-08 03:49:00,
2013-06-07 23:50:00,75.6,73.0,30.00,SSW,208,1.9,1.9,92,0.00,,,0.66,TxWx,2013-06-08 03:50:00,
2013-06-07 23:53:00,75.6,73.0,30.00,South,186,1.2,1.2,92,0.00,,,0.66,TxWx,2013-06-08 03:53:00,
2013-06-07 23:55:00,75.7,73.0,30.00,SSW,208,1.2,1.2,92,0.00,,,0.66,TxWx,2013-06-08 03:55:00,
2013-06-07 23:59:00,75.7,73.0,30.00,West,276,1.2,1.2,92,0.00,,,0.66,TxWx,2013-06-08 03:59:00,